<?xml version="1.0" encoding="UTF-8" standalone="no" ?>
<gpx xmlns="http://www.topografix.com/GPX/1/1" xmlns:xsi="http://www.w3.org/2001/XMLSchema-instance" xsi:schemaLocation="http://www.topografix.com/GPX/1/1 http://www.topografix.com/GPX/1/1/gpx.xsd" version="1.1" creator="VisuGPX - https://www.visugpx.com">
  <metadata>
    <name>Forêt de Saint-Germain - Le Mesnil-le-Roi</name>
    <desc><![CDATA[Parcours de 9 km.
]]></desc>
  </metadata>
  <trk>
    <name><![CDATA[Le Mesnil-T4_R]]></name>
    <trkseg>
      <trkpt lat="48.93205" lon="2.12327">
        <ele>62.53</ele>
        <time>2023-09-27T07:02:14Z</time>
      </trkpt>
      <trkpt lat="48.93205" lon="2.12325">
        <ele>65.13</ele>
        <time>2023-09-27T07:02:20Z</time>
      </trkpt>
      <trkpt lat="48.93214" lon="2.12324">
        <ele>65.75</ele>
        <time>2023-09-27T07:02:38Z</time>
      </trkpt>
      <trkpt lat="48.93233" lon="2.12319">
        <ele>66.22</ele>
        <time>2023-09-27T07:02:54Z</time>
      </trkpt>
      <trkpt lat="48.93255" lon="2.12317">
        <ele>65.91</ele>
        <time>2023-09-27T07:03:11Z</time>
      </trkpt>
      <trkpt lat="48.93275" lon="2.12313">
        <ele>66.88</ele>
        <time>2023-09-27T07:03:26Z</time>
      </trkpt>
      <trkpt lat="48.93293" lon="2.12313">
        <ele>66.78</ele>
        <time>2023-09-27T07:03:39Z</time>
      </trkpt>
      <trkpt lat="48.93311" lon="2.12308">
        <ele>66.89</ele>
        <time>2023-09-27T07:03:56Z</time>
      </trkpt>
      <trkpt lat="48.93327" lon="2.12303">
        <ele>67.06</ele>
        <time>2023-09-27T07:04:11Z</time>
      </trkpt>
      <trkpt lat="48.93339" lon="2.12297">
        <ele>67.55</ele>
        <time>2023-09-27T07:04:18Z</time>
      </trkpt>
      <trkpt lat="48.9335" lon="2.12268">
        <ele>67.2</ele>
        <time>2023-09-27T07:04:35Z</time>
      </trkpt>
      <trkpt lat="48.93354" lon="2.12263">
        <ele>67.69</ele>
        <time>2023-09-27T07:04:39Z</time>
      </trkpt>
      <trkpt lat="48.93357" lon="2.12258">
        <ele>67.66</ele>
        <time>2023-09-27T07:04:42Z</time>
      </trkpt>
      <trkpt lat="48.93365" lon="2.12242">
        <ele>68.04</ele>
        <time>2023-09-27T07:04:52Z</time>
      </trkpt>
      <trkpt lat="48.93367" lon="2.12237">
        <ele>67.85</ele>
        <time>2023-09-27T07:04:55Z</time>
      </trkpt>
      <trkpt lat="48.93372" lon="2.12223">
        <ele>67.65</ele>
        <time>2023-09-27T07:05:03Z</time>
      </trkpt>
      <trkpt lat="48.93374" lon="2.12213">
        <ele>68.04</ele>
        <time>2023-09-27T07:05:09Z</time>
      </trkpt>
      <trkpt lat="48.93385" lon="2.12199">
        <ele>69.23</ele>
        <time>2023-09-27T07:05:22Z</time>
      </trkpt>
      <trkpt lat="48.93391" lon="2.12188">
        <ele>68.98</ele>
        <time>2023-09-27T07:05:30Z</time>
      </trkpt>
      <trkpt lat="48.93404" lon="2.1216">
        <ele>69.47</ele>
        <time>2023-09-27T07:05:47Z</time>
      </trkpt>
      <trkpt lat="48.93415" lon="2.12138">
        <ele>69.96</ele>
        <time>2023-09-27T07:06:01Z</time>
      </trkpt>
      <trkpt lat="48.93416" lon="2.12136">
        <ele>70.07</ele>
        <time>2023-09-27T07:06:02Z</time>
      </trkpt>
      <trkpt lat="48.9342" lon="2.12122">
        <ele>70.02</ele>
        <time>2023-09-27T07:06:13Z</time>
      </trkpt>
      <trkpt lat="48.93421" lon="2.1212">
        <ele>69.57</ele>
        <time>2023-09-27T07:06:15Z</time>
      </trkpt>
      <trkpt lat="48.93433" lon="2.12089">
        <ele>69.38</ele>
        <time>2023-09-27T07:06:32Z</time>
      </trkpt>
      <trkpt lat="48.93434" lon="2.1207">
        <ele>70.08</ele>
        <time>2023-09-27T07:06:38Z</time>
      </trkpt>
      <trkpt lat="48.93441" lon="2.12043">
        <ele>69.94</ele>
        <time>2023-09-27T07:06:51Z</time>
      </trkpt>
      <trkpt lat="48.9345" lon="2.12024">
        <ele>69.51</ele>
        <time>2023-09-27T07:07:01Z</time>
      </trkpt>
      <trkpt lat="48.93456" lon="2.12005">
        <ele>68.83</ele>
        <time>2023-09-27T07:07:12Z</time>
      </trkpt>
      <trkpt lat="48.93462" lon="2.11993">
        <ele>69.29</ele>
        <time>2023-09-27T07:07:20Z</time>
      </trkpt>
      <trkpt lat="48.93474" lon="2.11965">
        <ele>68.92</ele>
        <time>2023-09-27T07:07:37Z</time>
      </trkpt>
      <trkpt lat="48.93474" lon="2.11962">
        <ele>69.21</ele>
        <time>2023-09-27T07:07:39Z</time>
      </trkpt>
      <trkpt lat="48.93478" lon="2.1194">
        <ele>69.16</ele>
        <time>2023-09-27T07:07:49Z</time>
      </trkpt>
      <trkpt lat="48.93475" lon="2.11921">
        <ele>68.93</ele>
        <time>2023-09-27T07:08:02Z</time>
      </trkpt>
      <trkpt lat="48.93475" lon="2.11919">
        <ele>69.07</ele>
        <time>2023-09-27T07:08:03Z</time>
      </trkpt>
      <trkpt lat="48.93474" lon="2.1191">
        <ele>68.78</ele>
        <time>2023-09-27T07:08:09Z</time>
      </trkpt>
      <trkpt lat="48.93477" lon="2.1189">
        <ele>68.78</ele>
        <time>2023-09-27T07:08:21Z</time>
      </trkpt>
      <trkpt lat="48.93478" lon="2.11883">
        <ele>68.94</ele>
        <time>2023-09-27T07:08:24Z</time>
      </trkpt>
      <trkpt lat="48.93489" lon="2.11877">
        <ele>68.72</ele>
        <time>2023-09-27T07:08:35Z</time>
      </trkpt>
      <trkpt lat="48.93502" lon="2.11878">
        <ele>68.06</ele>
        <time>2023-09-27T07:08:44Z</time>
      </trkpt>
      <trkpt lat="48.93518" lon="2.1188">
        <ele>67.84</ele>
        <time>2023-09-27T07:09:01Z</time>
      </trkpt>
      <trkpt lat="48.93536" lon="2.11878">
        <ele>67.09</ele>
        <time>2023-09-27T07:09:11Z</time>
      </trkpt>
      <trkpt lat="48.93546" lon="2.11875">
        <ele>66.92</ele>
        <time>2023-09-27T07:09:20Z</time>
      </trkpt>
      <trkpt lat="48.93565" lon="2.11876">
        <ele>66.55</ele>
        <time>2023-09-27T07:09:34Z</time>
      </trkpt>
      <trkpt lat="48.93569" lon="2.11875">
        <ele>66.46</ele>
        <time>2023-09-27T07:09:37Z</time>
      </trkpt>
      <trkpt lat="48.93581" lon="2.11873">
        <ele>65.91</ele>
        <time>2023-09-27T07:09:48Z</time>
      </trkpt>
      <trkpt lat="48.93601" lon="2.11874">
        <ele>65.22</ele>
        <time>2023-09-27T07:10:03Z</time>
      </trkpt>
      <trkpt lat="48.93612" lon="2.11876">
        <ele>64.94</ele>
        <time>2023-09-27T07:10:12Z</time>
      </trkpt>
      <trkpt lat="48.93617" lon="2.11877">
        <ele>64.51</ele>
        <time>2023-09-27T07:10:14Z</time>
      </trkpt>
      <trkpt lat="48.93633" lon="2.11875">
        <ele>64.44</ele>
        <time>2023-09-27T07:10:26Z</time>
      </trkpt>
      <trkpt lat="48.93645" lon="2.11873">
        <ele>64.28</ele>
        <time>2023-09-27T07:10:37Z</time>
      </trkpt>
      <trkpt lat="48.93664" lon="2.11871">
        <ele>63.09</ele>
        <time>2023-09-27T07:10:54Z</time>
      </trkpt>
      <trkpt lat="48.93683" lon="2.11869">
        <ele>62.95</ele>
        <time>2023-09-27T07:11:06Z</time>
      </trkpt>
      <trkpt lat="48.9369" lon="2.11859">
        <ele>62.96</ele>
        <time>2023-09-27T07:11:14Z</time>
      </trkpt>
      <trkpt lat="48.93701" lon="2.11832">
        <ele>63.02</ele>
        <time>2023-09-27T07:11:31Z</time>
      </trkpt>
      <trkpt lat="48.93703" lon="2.11829">
        <ele>63.13</ele>
        <time>2023-09-27T07:11:33Z</time>
      </trkpt>
      <trkpt lat="48.93714" lon="2.11797">
        <ele>63.14</ele>
        <time>2023-09-27T07:11:52Z</time>
      </trkpt>
      <trkpt lat="48.93716" lon="2.11773">
        <ele>62.4</ele>
        <time>2023-09-27T07:12:07Z</time>
      </trkpt>
      <trkpt lat="48.93722" lon="2.1174">
        <ele>62.42</ele>
        <time>2023-09-27T07:12:24Z</time>
      </trkpt>
      <trkpt lat="48.93724" lon="2.11709">
        <ele>62.52</ele>
        <time>2023-09-27T07:12:41Z</time>
      </trkpt>
      <trkpt lat="48.9373" lon="2.11677">
        <ele>62.39</ele>
        <time>2023-09-27T07:12:57Z</time>
      </trkpt>
      <trkpt lat="48.93734" lon="2.11651">
        <ele>62.19</ele>
        <time>2023-09-27T07:13:08Z</time>
      </trkpt>
      <trkpt lat="48.93739" lon="2.11626">
        <ele>62.01</ele>
        <time>2023-09-27T07:13:20Z</time>
      </trkpt>
      <trkpt lat="48.93739" lon="2.11625">
        <ele>61.52</ele>
        <time>2023-09-27T07:13:21Z</time>
      </trkpt>
      <trkpt lat="48.93739" lon="2.11608">
        <ele>61.74</ele>
        <time>2023-09-27T07:13:27Z</time>
      </trkpt>
      <trkpt lat="48.93742" lon="2.11576">
        <ele>61.56</ele>
        <time>2023-09-27T07:13:38Z</time>
      </trkpt>
      <trkpt lat="48.93743" lon="2.11561">
        <ele>60.92</ele>
        <time>2023-09-27T07:13:48Z</time>
      </trkpt>
      <trkpt lat="48.93744" lon="2.11541">
        <ele>60.93</ele>
        <time>2023-09-27T07:13:54Z</time>
      </trkpt>
      <trkpt lat="48.93751" lon="2.11527">
        <ele>60.78</ele>
        <time>2023-09-27T07:14:00Z</time>
      </trkpt>
      <trkpt lat="48.93752" lon="2.11502">
        <ele>60.69</ele>
        <time>2023-09-27T07:14:12Z</time>
      </trkpt>
      <trkpt lat="48.93759" lon="2.11486">
        <ele>60.4</ele>
        <time>2023-09-27T07:14:23Z</time>
      </trkpt>
      <trkpt lat="48.93764" lon="2.11469">
        <ele>60.19</ele>
        <time>2023-09-27T07:14:32Z</time>
      </trkpt>
      <trkpt lat="48.93769" lon="2.11445">
        <ele>60.33</ele>
        <time>2023-09-27T07:14:41Z</time>
      </trkpt>
      <trkpt lat="48.93771" lon="2.11434">
        <ele>60.57</ele>
        <time>2023-09-27T07:14:46Z</time>
      </trkpt>
      <trkpt lat="48.93773" lon="2.11423">
        <ele>60.32</ele>
        <time>2023-09-27T07:14:51Z</time>
      </trkpt>
      <trkpt lat="48.93774" lon="2.11411">
        <ele>60.17</ele>
        <time>2023-09-27T07:14:56Z</time>
      </trkpt>
      <trkpt lat="48.93775" lon="2.11406">
        <ele>59.75</ele>
        <time>2023-09-27T07:14:58Z</time>
      </trkpt>
      <trkpt lat="48.93778" lon="2.11375">
        <ele>60.26</ele>
        <time>2023-09-27T07:15:08Z</time>
      </trkpt>
      <trkpt lat="48.93783" lon="2.11343">
        <ele>60.07</ele>
        <time>2023-09-27T07:15:23Z</time>
      </trkpt>
      <trkpt lat="48.93785" lon="2.11337">
        <ele>59.99</ele>
        <time>2023-09-27T07:15:26Z</time>
      </trkpt>
      <trkpt lat="48.93785" lon="2.11327">
        <ele>59.49</ele>
        <time>2023-09-27T07:15:30Z</time>
      </trkpt>
      <trkpt lat="48.93787" lon="2.11321">
        <ele>59.97</ele>
        <time>2023-09-27T07:15:33Z</time>
      </trkpt>
      <trkpt lat="48.93794" lon="2.11289">
        <ele>59.56</ele>
        <time>2023-09-27T07:15:46Z</time>
      </trkpt>
      <trkpt lat="48.93796" lon="2.11272">
        <ele>59.63</ele>
        <time>2023-09-27T07:15:53Z</time>
      </trkpt>
      <trkpt lat="48.938" lon="2.11243">
        <ele>59.91</ele>
        <time>2023-09-27T07:16:05Z</time>
      </trkpt>
      <trkpt lat="48.93802" lon="2.11236">
        <ele>59.45</ele>
        <time>2023-09-27T07:16:09Z</time>
      </trkpt>
      <trkpt lat="48.93804" lon="2.11222">
        <ele>59.31</ele>
        <time>2023-09-27T07:16:15Z</time>
      </trkpt>
      <trkpt lat="48.93807" lon="2.11208">
        <ele>60.09</ele>
        <time>2023-09-27T07:16:21Z</time>
      </trkpt>
      <trkpt lat="48.9381" lon="2.11205">
        <ele>59.83</ele>
        <time>2023-09-27T07:16:23Z</time>
      </trkpt>
      <trkpt lat="48.93811" lon="2.11201">
        <ele>59.73</ele>
        <time>2023-09-27T07:16:25Z</time>
      </trkpt>
      <trkpt lat="48.93814" lon="2.1119">
        <ele>59.55</ele>
        <time>2023-09-27T07:16:42Z</time>
      </trkpt>
      <trkpt lat="48.93813" lon="2.11175">
        <ele>59.5</ele>
        <time>2023-09-27T07:16:49Z</time>
      </trkpt>
      <trkpt lat="48.93815" lon="2.1116">
        <ele>59.18</ele>
        <time>2023-09-27T07:16:57Z</time>
      </trkpt>
      <trkpt lat="48.93816" lon="2.11138">
        <ele>59.27</ele>
        <time>2023-09-27T07:17:08Z</time>
      </trkpt>
      <trkpt lat="48.93824" lon="2.11108">
        <ele>59.41</ele>
        <time>2023-09-27T07:17:23Z</time>
      </trkpt>
      <trkpt lat="48.93826" lon="2.11096">
        <ele>59.43</ele>
        <time>2023-09-27T07:17:28Z</time>
      </trkpt>
      <trkpt lat="48.93829" lon="2.11074">
        <ele>59.48</ele>
        <time>2023-09-27T07:17:38Z</time>
      </trkpt>
      <trkpt lat="48.9383" lon="2.11064">
        <ele>59.63</ele>
        <time>2023-09-27T07:17:43Z</time>
      </trkpt>
      <trkpt lat="48.93835" lon="2.11044">
        <ele>58.64</ele>
        <time>2023-09-27T07:17:54Z</time>
      </trkpt>
      <trkpt lat="48.93837" lon="2.1103">
        <ele>58.94</ele>
        <time>2023-09-27T07:17:59Z</time>
      </trkpt>
      <trkpt lat="48.93838" lon="2.11008">
        <ele>58.73</ele>
        <time>2023-09-27T07:18:09Z</time>
      </trkpt>
      <trkpt lat="48.93838" lon="2.10996">
        <ele>58.73</ele>
        <time>2023-09-27T07:18:14Z</time>
      </trkpt>
      <trkpt lat="48.93841" lon="2.10979">
        <ele>58.79</ele>
        <time>2023-09-27T07:18:21Z</time>
      </trkpt>
      <trkpt lat="48.93843" lon="2.10975">
        <ele>58.86</ele>
        <time>2023-09-27T07:18:23Z</time>
      </trkpt>
      <trkpt lat="48.93846" lon="2.10949">
        <ele>58.85</ele>
        <time>2023-09-27T07:18:33Z</time>
      </trkpt>
      <trkpt lat="48.93849" lon="2.10933">
        <ele>58.1</ele>
        <time>2023-09-27T07:18:40Z</time>
      </trkpt>
      <trkpt lat="48.93849" lon="2.10911">
        <ele>58.37</ele>
        <time>2023-09-27T07:18:48Z</time>
      </trkpt>
      <trkpt lat="48.93853" lon="2.10892">
        <ele>59.01</ele>
        <time>2023-09-27T07:18:57Z</time>
      </trkpt>
      <trkpt lat="48.93856" lon="2.10878">
        <ele>59.09</ele>
        <time>2023-09-27T07:19:04Z</time>
      </trkpt>
      <trkpt lat="48.93861" lon="2.10861">
        <ele>58.43</ele>
        <time>2023-09-27T07:19:12Z</time>
      </trkpt>
      <trkpt lat="48.93863" lon="2.10837">
        <ele>58.65</ele>
        <time>2023-09-27T07:19:22Z</time>
      </trkpt>
      <trkpt lat="48.93858" lon="2.10821">
        <ele>59.04</ele>
        <time>2023-09-27T07:19:32Z</time>
      </trkpt>
      <trkpt lat="48.93854" lon="2.10809">
        <ele>59.27</ele>
        <time>2023-09-27T07:19:40Z</time>
      </trkpt>
      <trkpt lat="48.93847" lon="2.10791">
        <ele>58.72</ele>
        <time>2023-09-27T07:19:49Z</time>
      </trkpt>
      <trkpt lat="48.9384" lon="2.10771">
        <ele>58.45</ele>
        <time>2023-09-27T07:19:59Z</time>
      </trkpt>
      <trkpt lat="48.93835" lon="2.10744">
        <ele>58.14</ele>
        <time>2023-09-27T07:20:14Z</time>
      </trkpt>
      <trkpt lat="48.93822" lon="2.10713">
        <ele>58.37</ele>
        <time>2023-09-27T07:20:29Z</time>
      </trkpt>
      <trkpt lat="48.93806" lon="2.10672">
        <ele>58.33</ele>
        <time>2023-09-27T07:20:45Z</time>
      </trkpt>
      <trkpt lat="48.93798" lon="2.1064">
        <ele>58.91</ele>
        <time>2023-09-27T07:21:03Z</time>
      </trkpt>
      <trkpt lat="48.93787" lon="2.10605">
        <ele>59.57</ele>
        <time>2023-09-27T07:21:21Z</time>
      </trkpt>
      <trkpt lat="48.93775" lon="2.1057">
        <ele>59.3</ele>
        <time>2023-09-27T07:21:34Z</time>
      </trkpt>
      <trkpt lat="48.93767" lon="2.10546">
        <ele>59.76</ele>
        <time>2023-09-27T07:21:47Z</time>
      </trkpt>
      <trkpt lat="48.93765" lon="2.10532">
        <ele>60.08</ele>
        <time>2023-09-27T07:21:57Z</time>
      </trkpt>
      <trkpt lat="48.93751" lon="2.1049">
        <ele>60.61</ele>
        <time>2023-09-27T07:22:14Z</time>
      </trkpt>
      <trkpt lat="48.93745" lon="2.10471">
        <ele>60.6</ele>
        <time>2023-09-27T07:22:25Z</time>
      </trkpt>
      <trkpt lat="48.93734" lon="2.10432">
        <ele>60.96</ele>
        <time>2023-09-27T07:22:43Z</time>
      </trkpt>
      <trkpt lat="48.93727" lon="2.10407">
        <ele>61.31</ele>
        <time>2023-09-27T07:22:55Z</time>
      </trkpt>
      <trkpt lat="48.93713" lon="2.10369">
        <ele>61.9</ele>
        <time>2023-09-27T07:23:12Z</time>
      </trkpt>
      <trkpt lat="48.93699" lon="2.10327">
        <ele>62.23</ele>
        <time>2023-09-27T07:23:31Z</time>
      </trkpt>
      <trkpt lat="48.93695" lon="2.10313">
        <ele>62.01</ele>
        <time>2023-09-27T07:23:39Z</time>
      </trkpt>
      <trkpt lat="48.93686" lon="2.1029">
        <ele>62.85</ele>
        <time>2023-09-27T07:23:50Z</time>
      </trkpt>
      <trkpt lat="48.93678" lon="2.10263">
        <ele>62.65</ele>
        <time>2023-09-27T07:24:01Z</time>
      </trkpt>
      <trkpt lat="48.93672" lon="2.10238">
        <ele>62.69</ele>
        <time>2023-09-27T07:24:14Z</time>
      </trkpt>
      <trkpt lat="48.93662" lon="2.10211">
        <ele>63.32</ele>
        <time>2023-09-27T07:24:27Z</time>
      </trkpt>
      <trkpt lat="48.9366" lon="2.10206">
        <ele>63.13</ele>
        <time>2023-09-27T07:24:30Z</time>
      </trkpt>
      <trkpt lat="48.93658" lon="2.10199">
        <ele>63.33</ele>
        <time>2023-09-27T07:24:34Z</time>
      </trkpt>
      <trkpt lat="48.93649" lon="2.10175">
        <ele>62.81</ele>
        <time>2023-09-27T07:24:47Z</time>
      </trkpt>
      <trkpt lat="48.93646" lon="2.10161">
        <ele>62.58</ele>
        <time>2023-09-27T07:24:53Z</time>
      </trkpt>
      <trkpt lat="48.93644" lon="2.10152">
        <ele>63.59</ele>
        <time>2023-09-27T07:24:57Z</time>
      </trkpt>
      <trkpt lat="48.93643" lon="2.10148">
        <ele>63.64</ele>
        <time>2023-09-27T07:24:59Z</time>
      </trkpt>
      <trkpt lat="48.93636" lon="2.10134">
        <ele>63.66</ele>
        <time>2023-09-27T07:25:05Z</time>
      </trkpt>
      <trkpt lat="48.93635" lon="2.10135">
        <ele>63.96</ele>
        <time>2023-09-27T07:25:23Z</time>
      </trkpt>
      <trkpt lat="48.93636" lon="2.1014">
        <ele>64.02</ele>
        <time>2023-09-27T07:25:44Z</time>
      </trkpt>
      <trkpt lat="48.93635" lon="2.10142">
        <ele>64.48</ele>
        <time>2023-09-27T07:26:04Z</time>
      </trkpt>
      <trkpt lat="48.93636" lon="2.1014">
        <ele>64.33</ele>
        <time>2023-09-27T07:26:24Z</time>
      </trkpt>
      <trkpt lat="48.93636" lon="2.10136">
        <ele>64.64</ele>
        <time>2023-09-27T07:26:42Z</time>
      </trkpt>
      <trkpt lat="48.93633" lon="2.10137">
        <ele>64.88</ele>
        <time>2023-09-27T07:27:05Z</time>
      </trkpt>
      <trkpt lat="48.93631" lon="2.1014">
        <ele>64.61</ele>
        <time>2023-09-27T07:27:24Z</time>
      </trkpt>
      <trkpt lat="48.93629" lon="2.10141">
        <ele>65.49</ele>
        <time>2023-09-27T07:27:46Z</time>
      </trkpt>
      <trkpt lat="48.93629" lon="2.10142">
        <ele>65.9</ele>
        <time>2023-09-27T07:28:06Z</time>
      </trkpt>
      <trkpt lat="48.93624" lon="2.10141">
        <ele>65.45</ele>
        <time>2023-09-27T07:28:22Z</time>
      </trkpt>
      <trkpt lat="48.93623" lon="2.10141">
        <ele>65.61</ele>
        <time>2023-09-27T07:28:23Z</time>
      </trkpt>
      <trkpt lat="48.93617" lon="2.1014">
        <ele>66.1</ele>
        <time>2023-09-27T07:28:31Z</time>
      </trkpt>
      <trkpt lat="48.93603" lon="2.10136">
        <ele>65.96</ele>
        <time>2023-09-27T07:28:45Z</time>
      </trkpt>
      <trkpt lat="48.93581" lon="2.10134">
        <ele>66.73</ele>
        <time>2023-09-27T07:29:02Z</time>
      </trkpt>
      <trkpt lat="48.93555" lon="2.10132">
        <ele>67.16</ele>
        <time>2023-09-27T07:29:19Z</time>
      </trkpt>
      <trkpt lat="48.93533" lon="2.10125">
        <ele>66.44</ele>
        <time>2023-09-27T07:29:36Z</time>
      </trkpt>
      <trkpt lat="48.93525" lon="2.10124">
        <ele>66.75</ele>
        <time>2023-09-27T07:29:42Z</time>
      </trkpt>
      <trkpt lat="48.93498" lon="2.10117">
        <ele>67.08</ele>
        <time>2023-09-27T07:29:59Z</time>
      </trkpt>
      <trkpt lat="48.93489" lon="2.10113">
        <ele>66.81</ele>
        <time>2023-09-27T07:30:05Z</time>
      </trkpt>
      <trkpt lat="48.93481" lon="2.1011">
        <ele>66.49</ele>
        <time>2023-09-27T07:30:09Z</time>
      </trkpt>
      <trkpt lat="48.93463" lon="2.10106">
        <ele>66.13</ele>
        <time>2023-09-27T07:30:22Z</time>
      </trkpt>
      <trkpt lat="48.93438" lon="2.10101">
        <ele>65.81</ele>
        <time>2023-09-27T07:30:36Z</time>
      </trkpt>
      <trkpt lat="48.93421" lon="2.10095">
        <ele>65.65</ele>
        <time>2023-09-27T07:30:46Z</time>
      </trkpt>
      <trkpt lat="48.93403" lon="2.10086">
        <ele>65.24</ele>
        <time>2023-09-27T07:30:59Z</time>
      </trkpt>
      <trkpt lat="48.93388" lon="2.10086">
        <ele>65.13</ele>
        <time>2023-09-27T07:31:09Z</time>
      </trkpt>
      <trkpt lat="48.93365" lon="2.10082">
        <ele>64.85</ele>
        <time>2023-09-27T07:31:26Z</time>
      </trkpt>
      <trkpt lat="48.93355" lon="2.10078">
        <ele>65.12</ele>
        <time>2023-09-27T07:31:32Z</time>
      </trkpt>
      <trkpt lat="48.93322" lon="2.10074">
        <ele>64.65</ele>
        <time>2023-09-27T07:31:52Z</time>
      </trkpt>
      <trkpt lat="48.93301" lon="2.10067">
        <ele>64.9</ele>
        <time>2023-09-27T07:32:07Z</time>
      </trkpt>
      <trkpt lat="48.93273" lon="2.10062">
        <ele>63.68</ele>
        <time>2023-09-27T07:32:25Z</time>
      </trkpt>
      <trkpt lat="48.93249" lon="2.10048">
        <ele>63.27</ele>
        <time>2023-09-27T07:32:40Z</time>
      </trkpt>
      <trkpt lat="48.93233" lon="2.10039">
        <ele>63.01</ele>
        <time>2023-09-27T07:32:51Z</time>
      </trkpt>
      <trkpt lat="48.93209" lon="2.10021">
        <ele>63.11</ele>
        <time>2023-09-27T07:33:04Z</time>
      </trkpt>
      <trkpt lat="48.93194" lon="2.10015">
        <ele>62.61</ele>
        <time>2023-09-27T07:33:15Z</time>
      </trkpt>
      <trkpt lat="48.93191" lon="2.10014">
        <ele>62.6</ele>
        <time>2023-09-27T07:33:18Z</time>
      </trkpt>
      <trkpt lat="48.93183" lon="2.1001">
        <ele>62.55</ele>
        <time>2023-09-27T07:33:23Z</time>
      </trkpt>
      <trkpt lat="48.93174" lon="2.10004">
        <ele>62.55</ele>
        <time>2023-09-27T07:33:30Z</time>
      </trkpt>
      <trkpt lat="48.93168" lon="2.09998">
        <ele>62.32</ele>
        <time>2023-09-27T07:33:34Z</time>
      </trkpt>
      <trkpt lat="48.93155" lon="2.09993">
        <ele>62.14</ele>
        <time>2023-09-27T07:33:46Z</time>
      </trkpt>
      <trkpt lat="48.93154" lon="2.09992">
        <ele>62.26</ele>
        <time>2023-09-27T07:33:47Z</time>
      </trkpt>
      <trkpt lat="48.93149" lon="2.09989">
        <ele>61.86</ele>
        <time>2023-09-27T07:33:50Z</time>
      </trkpt>
      <trkpt lat="48.9313" lon="2.09978">
        <ele>62.17</ele>
        <time>2023-09-27T07:34:03Z</time>
      </trkpt>
      <trkpt lat="48.93124" lon="2.09975">
        <ele>62.09</ele>
        <time>2023-09-27T07:34:07Z</time>
      </trkpt>
      <trkpt lat="48.93108" lon="2.09971">
        <ele>62.05</ele>
        <time>2023-09-27T07:34:19Z</time>
      </trkpt>
      <trkpt lat="48.93083" lon="2.09958">
        <ele>61.56</ele>
        <time>2023-09-27T07:34:34Z</time>
      </trkpt>
      <trkpt lat="48.93064" lon="2.09947">
        <ele>61.54</ele>
        <time>2023-09-27T07:34:45Z</time>
      </trkpt>
      <trkpt lat="48.93047" lon="2.09935">
        <ele>61.5</ele>
        <time>2023-09-27T07:34:58Z</time>
      </trkpt>
      <trkpt lat="48.9302" lon="2.09923">
        <ele>61.8</ele>
        <time>2023-09-27T07:35:15Z</time>
      </trkpt>
      <trkpt lat="48.92999" lon="2.09911">
        <ele>61.42</ele>
        <time>2023-09-27T07:35:28Z</time>
      </trkpt>
      <trkpt lat="48.92981" lon="2.09903">
        <ele>61.82</ele>
        <time>2023-09-27T07:35:39Z</time>
      </trkpt>
      <trkpt lat="48.92964" lon="2.09894">
        <ele>61.67</ele>
        <time>2023-09-27T07:35:50Z</time>
      </trkpt>
      <trkpt lat="48.9295" lon="2.09887">
        <ele>61.27</ele>
        <time>2023-09-27T07:35:59Z</time>
      </trkpt>
      <trkpt lat="48.92936" lon="2.09879">
        <ele>61.12</ele>
        <time>2023-09-27T07:36:10Z</time>
      </trkpt>
      <trkpt lat="48.92921" lon="2.09869">
        <ele>61.24</ele>
        <time>2023-09-27T07:36:26Z</time>
      </trkpt>
      <trkpt lat="48.92911" lon="2.09866">
        <ele>61.83</ele>
        <time>2023-09-27T07:36:34Z</time>
      </trkpt>
      <trkpt lat="48.92894" lon="2.09856">
        <ele>61.72</ele>
        <time>2023-09-27T07:36:47Z</time>
      </trkpt>
      <trkpt lat="48.92887" lon="2.0985">
        <ele>61.99</ele>
        <time>2023-09-27T07:37:03Z</time>
      </trkpt>
      <trkpt lat="48.92883" lon="2.09852">
        <ele>62.19</ele>
        <time>2023-09-27T07:37:26Z</time>
      </trkpt>
      <trkpt lat="48.92882" lon="2.09853">
        <ele>61.61</ele>
        <time>2023-09-27T07:37:48Z</time>
      </trkpt>
      <trkpt lat="48.92881" lon="2.09853">
        <ele>61.43</ele>
        <time>2023-09-27T07:38:10Z</time>
      </trkpt>
      <trkpt lat="48.92877" lon="2.09853">
        <ele>61.88</ele>
        <time>2023-09-27T07:38:32Z</time>
      </trkpt>
      <trkpt lat="48.92871" lon="2.09847">
        <ele>61.67</ele>
        <time>2023-09-27T07:38:52Z</time>
      </trkpt>
      <trkpt lat="48.9287" lon="2.09846">
        <ele>61.74</ele>
        <time>2023-09-27T07:39:13Z</time>
      </trkpt>
      <trkpt lat="48.92868" lon="2.09848">
        <ele>61.74</ele>
        <time>2023-09-27T07:39:32Z</time>
      </trkpt>
      <trkpt lat="48.92867" lon="2.09836">
        <ele>61.52</ele>
        <time>2023-09-27T07:39:48Z</time>
      </trkpt>
      <trkpt lat="48.92862" lon="2.0982">
        <ele>61.92</ele>
        <time>2023-09-27T07:40:02Z</time>
      </trkpt>
      <trkpt lat="48.92854" lon="2.09792">
        <ele>61.92</ele>
        <time>2023-09-27T07:40:17Z</time>
      </trkpt>
      <trkpt lat="48.92843" lon="2.0977">
        <ele>61.88</ele>
        <time>2023-09-27T07:40:31Z</time>
      </trkpt>
      <trkpt lat="48.92827" lon="2.0974">
        <ele>62.12</ele>
        <time>2023-09-27T07:40:49Z</time>
      </trkpt>
      <trkpt lat="48.92818" lon="2.09722">
        <ele>61.75</ele>
        <time>2023-09-27T07:41:00Z</time>
      </trkpt>
      <trkpt lat="48.92808" lon="2.09696">
        <ele>61.57</ele>
        <time>2023-09-27T07:41:13Z</time>
      </trkpt>
      <trkpt lat="48.92796" lon="2.09667">
        <ele>61.51</ele>
        <time>2023-09-27T07:41:29Z</time>
      </trkpt>
      <trkpt lat="48.92782" lon="2.09647">
        <ele>61.43</ele>
        <time>2023-09-27T07:41:44Z</time>
      </trkpt>
      <trkpt lat="48.92768" lon="2.09624">
        <ele>61.56</ele>
        <time>2023-09-27T07:41:59Z</time>
      </trkpt>
      <trkpt lat="48.92764" lon="2.09622">
        <ele>62.26</ele>
        <time>2023-09-27T07:42:02Z</time>
      </trkpt>
      <trkpt lat="48.92744" lon="2.09606">
        <ele>61.25</ele>
        <time>2023-09-27T07:42:14Z</time>
      </trkpt>
      <trkpt lat="48.92734" lon="2.09603">
        <ele>61.05</ele>
        <time>2023-09-27T07:42:22Z</time>
      </trkpt>
      <trkpt lat="48.92723" lon="2.09601">
        <ele>61.3</ele>
        <time>2023-09-27T07:42:30Z</time>
      </trkpt>
      <trkpt lat="48.92701" lon="2.09605">
        <ele>60.87</ele>
        <time>2023-09-27T07:42:44Z</time>
      </trkpt>
      <trkpt lat="48.92681" lon="2.09599">
        <ele>61.1</ele>
        <time>2023-09-27T07:42:59Z</time>
      </trkpt>
      <trkpt lat="48.92667" lon="2.09594">
        <ele>60.66</ele>
        <time>2023-09-27T07:43:09Z</time>
      </trkpt>
      <trkpt lat="48.92644" lon="2.09595">
        <ele>60.55</ele>
        <time>2023-09-27T07:43:25Z</time>
      </trkpt>
      <trkpt lat="48.9263" lon="2.09596">
        <ele>60.76</ele>
        <time>2023-09-27T07:43:38Z</time>
      </trkpt>
      <trkpt lat="48.92617" lon="2.09595">
        <ele>60.35</ele>
        <time>2023-09-27T07:43:49Z</time>
      </trkpt>
      <trkpt lat="48.9259" lon="2.09602">
        <ele>59.97</ele>
        <time>2023-09-27T07:44:06Z</time>
      </trkpt>
      <trkpt lat="48.9258" lon="2.096">
        <ele>59.91</ele>
        <time>2023-09-27T07:44:15Z</time>
      </trkpt>
      <trkpt lat="48.92571" lon="2.096">
        <ele>59.79</ele>
        <time>2023-09-27T07:44:20Z</time>
      </trkpt>
      <trkpt lat="48.92536" lon="2.09601">
        <ele>59.72</ele>
        <time>2023-09-27T07:44:40Z</time>
      </trkpt>
      <trkpt lat="48.92511" lon="2.09576">
        <ele>59.53</ele>
        <time>2023-09-27T07:44:53Z</time>
      </trkpt>
      <trkpt lat="48.92502" lon="2.09563">
        <ele>59.32</ele>
        <time>2023-09-27T07:45:03Z</time>
      </trkpt>
      <trkpt lat="48.92492" lon="2.09553">
        <ele>59.08</ele>
        <time>2023-09-27T07:45:12Z</time>
      </trkpt>
      <trkpt lat="48.92488" lon="2.09546">
        <ele>59.08</ele>
        <time>2023-09-27T07:45:16Z</time>
      </trkpt>
      <trkpt lat="48.92474" lon="2.0953">
        <ele>58.67</ele>
        <time>2023-09-27T07:45:29Z</time>
      </trkpt>
      <trkpt lat="48.92458" lon="2.09514">
        <ele>58.52</ele>
        <time>2023-09-27T07:45:42Z</time>
      </trkpt>
      <trkpt lat="48.9244" lon="2.09493">
        <ele>58.24</ele>
        <time>2023-09-27T07:45:56Z</time>
      </trkpt>
      <trkpt lat="48.92422" lon="2.09468">
        <ele>58.14</ele>
        <time>2023-09-27T07:46:11Z</time>
      </trkpt>
      <trkpt lat="48.92404" lon="2.09451">
        <ele>58.08</ele>
        <time>2023-09-27T07:46:23Z</time>
      </trkpt>
      <trkpt lat="48.92399" lon="2.09446">
        <ele>57.39</ele>
        <time>2023-09-27T07:46:29Z</time>
      </trkpt>
      <trkpt lat="48.92392" lon="2.09439">
        <ele>57.7</ele>
        <time>2023-09-27T07:46:35Z</time>
      </trkpt>
      <trkpt lat="48.92389" lon="2.09435">
        <ele>57.48</ele>
        <time>2023-09-27T07:46:38Z</time>
      </trkpt>
      <trkpt lat="48.92368" lon="2.09417">
        <ele>57.11</ele>
        <time>2023-09-27T07:46:55Z</time>
      </trkpt>
      <trkpt lat="48.92357" lon="2.09406">
        <ele>57.19</ele>
        <time>2023-09-27T07:47:08Z</time>
      </trkpt>
      <trkpt lat="48.92356" lon="2.09404">
        <ele>57.01</ele>
        <time>2023-09-27T07:47:09Z</time>
      </trkpt>
      <trkpt lat="48.92352" lon="2.094">
        <ele>56.98</ele>
        <time>2023-09-27T07:47:12Z</time>
      </trkpt>
      <trkpt lat="48.92347" lon="2.09395">
        <ele>56.86</ele>
        <time>2023-09-27T07:47:16Z</time>
      </trkpt>
      <trkpt lat="48.9233" lon="2.09375">
        <ele>57.02</ele>
        <time>2023-09-27T07:47:27Z</time>
      </trkpt>
      <trkpt lat="48.92318" lon="2.09353">
        <ele>56.53</ele>
        <time>2023-09-27T07:47:37Z</time>
      </trkpt>
      <trkpt lat="48.92307" lon="2.09342">
        <ele>56.27</ele>
        <time>2023-09-27T07:47:46Z</time>
      </trkpt>
      <trkpt lat="48.92298" lon="2.0933">
        <ele>56.45</ele>
        <time>2023-09-27T07:47:53Z</time>
      </trkpt>
      <trkpt lat="48.92291" lon="2.09319">
        <ele>56.37</ele>
        <time>2023-09-27T07:47:58Z</time>
      </trkpt>
      <trkpt lat="48.9228" lon="2.09306">
        <ele>56.19</ele>
        <time>2023-09-27T07:48:06Z</time>
      </trkpt>
      <trkpt lat="48.92262" lon="2.09286">
        <ele>55.87</ele>
        <time>2023-09-27T07:48:22Z</time>
      </trkpt>
      <trkpt lat="48.92244" lon="2.09266">
        <ele>55.98</ele>
        <time>2023-09-27T07:48:38Z</time>
      </trkpt>
      <trkpt lat="48.9224" lon="2.09265">
        <ele>55.83</ele>
        <time>2023-09-27T07:48:40Z</time>
      </trkpt>
      <trkpt lat="48.92238" lon="2.09262">
        <ele>56.27</ele>
        <time>2023-09-27T07:48:42Z</time>
      </trkpt>
      <trkpt lat="48.92224" lon="2.09254">
        <ele>55.66</ele>
        <time>2023-09-27T07:48:55Z</time>
      </trkpt>
      <trkpt lat="48.92217" lon="2.09245">
        <ele>55.82</ele>
        <time>2023-09-27T07:49:01Z</time>
      </trkpt>
      <trkpt lat="48.92212" lon="2.09241">
        <ele>55.11</ele>
        <time>2023-09-27T07:49:05Z</time>
      </trkpt>
      <trkpt lat="48.92193" lon="2.09217">
        <ele>55.7</ele>
        <time>2023-09-27T07:49:21Z</time>
      </trkpt>
      <trkpt lat="48.92186" lon="2.09208">
        <ele>55.4</ele>
        <time>2023-09-27T07:49:29Z</time>
      </trkpt>
      <trkpt lat="48.92175" lon="2.09193">
        <ele>55.18</ele>
        <time>2023-09-27T07:49:41Z</time>
      </trkpt>
      <trkpt lat="48.92155" lon="2.09173">
        <ele>55.72</ele>
        <time>2023-09-27T07:49:55Z</time>
      </trkpt>
      <trkpt lat="48.92142" lon="2.09152">
        <ele>55.83</ele>
        <time>2023-09-27T07:50:08Z</time>
      </trkpt>
      <trkpt lat="48.92124" lon="2.09131">
        <ele>55.06</ele>
        <time>2023-09-27T07:50:24Z</time>
      </trkpt>
      <trkpt lat="48.9211" lon="2.0911">
        <ele>55.67</ele>
        <time>2023-09-27T07:50:35Z</time>
      </trkpt>
      <trkpt lat="48.92101" lon="2.09102">
        <ele>55.41</ele>
        <time>2023-09-27T07:50:44Z</time>
      </trkpt>
      <trkpt lat="48.92092" lon="2.09091">
        <ele>55.23</ele>
        <time>2023-09-27T07:50:52Z</time>
      </trkpt>
      <trkpt lat="48.92076" lon="2.0907">
        <ele>55.24</ele>
        <time>2023-09-27T07:51:07Z</time>
      </trkpt>
      <trkpt lat="48.92067" lon="2.09063">
        <ele>55.33</ele>
        <time>2023-09-27T07:51:15Z</time>
      </trkpt>
      <trkpt lat="48.9205" lon="2.09049">
        <ele>55.12</ele>
        <time>2023-09-27T07:51:29Z</time>
      </trkpt>
      <trkpt lat="48.92037" lon="2.09035">
        <ele>55.35</ele>
        <time>2023-09-27T07:51:42Z</time>
      </trkpt>
      <trkpt lat="48.9202" lon="2.09022">
        <ele>54.76</ele>
        <time>2023-09-27T07:51:54Z</time>
      </trkpt>
      <trkpt lat="48.92013" lon="2.09022">
        <ele>54.77</ele>
        <time>2023-09-27T07:52:04Z</time>
      </trkpt>
      <trkpt lat="48.92001" lon="2.09037">
        <ele>55.09</ele>
        <time>2023-09-27T07:52:21Z</time>
      </trkpt>
      <trkpt lat="48.91989" lon="2.09054">
        <ele>55.19</ele>
        <time>2023-09-27T07:52:35Z</time>
      </trkpt>
      <trkpt lat="48.91974" lon="2.09087">
        <ele>53.59</ele>
        <time>2023-09-27T07:52:55Z</time>
      </trkpt>
      <trkpt lat="48.91971" lon="2.09093">
        <ele>54.04</ele>
        <time>2023-09-27T07:53:00Z</time>
      </trkpt>
      <trkpt lat="48.91961" lon="2.09101">
        <ele>53.89</ele>
        <time>2023-09-27T07:53:14Z</time>
      </trkpt>
      <trkpt lat="48.91956" lon="2.09097">
        <ele>53.74</ele>
        <time>2023-09-27T07:53:29Z</time>
      </trkpt>
      <trkpt lat="48.91946" lon="2.09084">
        <ele>54.33</ele>
        <time>2023-09-27T07:53:44Z</time>
      </trkpt>
      <trkpt lat="48.9194" lon="2.09081">
        <ele>54.01</ele>
        <time>2023-09-27T07:53:56Z</time>
      </trkpt>
      <trkpt lat="48.91937" lon="2.09086">
        <ele>53.46</ele>
        <time>2023-09-27T07:54:16Z</time>
      </trkpt>
      <trkpt lat="48.91931" lon="2.09087">
        <ele>53.04</ele>
        <time>2023-09-27T07:54:40Z</time>
      </trkpt>
      <trkpt lat="48.91931" lon="2.09079">
        <ele>53.12</ele>
        <time>2023-09-27T07:54:47Z</time>
      </trkpt>
      <trkpt lat="48.91932" lon="2.0906">
        <ele>52.8</ele>
        <time>2023-09-27T07:55:08Z</time>
      </trkpt>
      <trkpt lat="48.91929" lon="2.09055">
        <ele>52.88</ele>
        <time>2023-09-27T07:55:30Z</time>
      </trkpt>
      <trkpt lat="48.91928" lon="2.09054">
        <ele>52.58</ele>
        <time>2023-09-27T07:55:50Z</time>
      </trkpt>
      <trkpt lat="48.91926" lon="2.09053">
        <ele>53.13</ele>
        <time>2023-09-27T07:56:11Z</time>
      </trkpt>
      <trkpt lat="48.91927" lon="2.09053">
        <ele>53.02</ele>
        <time>2023-09-27T07:56:30Z</time>
      </trkpt>
      <trkpt lat="48.91928" lon="2.09055">
        <ele>52.19</ele>
        <time>2023-09-27T07:56:52Z</time>
      </trkpt>
      <trkpt lat="48.91926" lon="2.09055">
        <ele>53.23</ele>
        <time>2023-09-27T07:57:14Z</time>
      </trkpt>
      <trkpt lat="48.91927" lon="2.09056">
        <ele>53.2</ele>
        <time>2023-09-27T07:57:35Z</time>
      </trkpt>
      <trkpt lat="48.9193" lon="2.09052">
        <ele>53.51</ele>
        <time>2023-09-27T07:57:58Z</time>
      </trkpt>
      <trkpt lat="48.91926" lon="2.0905">
        <ele>53.24</ele>
        <time>2023-09-27T07:58:19Z</time>
      </trkpt>
      <trkpt lat="48.91924" lon="2.09047">
        <ele>53.15</ele>
        <time>2023-09-27T07:58:34Z</time>
      </trkpt>
      <trkpt lat="48.9192" lon="2.09046">
        <ele>53.2</ele>
        <time>2023-09-27T07:58:52Z</time>
      </trkpt>
      <trkpt lat="48.91912" lon="2.0905">
        <ele>53.54</ele>
        <time>2023-09-27T07:59:07Z</time>
      </trkpt>
      <trkpt lat="48.91902" lon="2.09069">
        <ele>54</ele>
        <time>2023-09-27T07:59:21Z</time>
      </trkpt>
      <trkpt lat="48.91895" lon="2.09075">
        <ele>53.65</ele>
        <time>2023-09-27T07:59:27Z</time>
      </trkpt>
      <trkpt lat="48.91883" lon="2.09084">
        <ele>53.52</ele>
        <time>2023-09-27T07:59:38Z</time>
      </trkpt>
      <trkpt lat="48.91874" lon="2.09094">
        <ele>53.78</ele>
        <time>2023-09-27T07:59:48Z</time>
      </trkpt>
      <trkpt lat="48.91873" lon="2.09098">
        <ele>54.11</ele>
        <time>2023-09-27T07:59:50Z</time>
      </trkpt>
      <trkpt lat="48.91866" lon="2.09128">
        <ele>53.59</ele>
        <time>2023-09-27T08:00:05Z</time>
      </trkpt>
      <trkpt lat="48.91862" lon="2.09154">
        <ele>53.35</ele>
        <time>2023-09-27T08:00:20Z</time>
      </trkpt>
      <trkpt lat="48.91857" lon="2.09183">
        <ele>53.57</ele>
        <time>2023-09-27T08:00:37Z</time>
      </trkpt>
      <trkpt lat="48.91854" lon="2.09201">
        <ele>53.26</ele>
        <time>2023-09-27T08:00:46Z</time>
      </trkpt>
      <trkpt lat="48.9184" lon="2.09229">
        <ele>52.99</ele>
        <time>2023-09-27T08:01:01Z</time>
      </trkpt>
      <trkpt lat="48.9182" lon="2.09246">
        <ele>52.96</ele>
        <time>2023-09-27T08:01:20Z</time>
      </trkpt>
      <trkpt lat="48.91813" lon="2.09274">
        <ele>52.31</ele>
        <time>2023-09-27T08:02:06Z</time>
      </trkpt>
      <trkpt lat="48.91808" lon="2.09286">
        <ele>52.5</ele>
        <time>2023-09-27T08:02:12Z</time>
      </trkpt>
      <trkpt lat="48.91806" lon="2.0931">
        <ele>51.83</ele>
        <time>2023-09-27T08:02:29Z</time>
      </trkpt>
      <trkpt lat="48.91809" lon="2.09327">
        <ele>51.99</ele>
        <time>2023-09-27T08:02:31Z</time>
      </trkpt>
      <trkpt lat="48.91815" lon="2.09333">
        <ele>51</ele>
        <time>2023-09-27T08:02:43Z</time>
      </trkpt>
      <trkpt lat="48.91819" lon="2.09342">
        <ele>51.17</ele>
        <time>2023-09-27T08:02:55Z</time>
      </trkpt>
      <trkpt lat="48.91825" lon="2.09357">
        <ele>50.69</ele>
        <time>2023-09-27T08:03:04Z</time>
      </trkpt>
      <trkpt lat="48.91834" lon="2.09376">
        <ele>50.35</ele>
        <time>2023-09-27T08:03:15Z</time>
      </trkpt>
      <trkpt lat="48.91837" lon="2.0938">
        <ele>50.35</ele>
        <time>2023-09-27T08:03:19Z</time>
      </trkpt>
      <trkpt lat="48.91843" lon="2.09387">
        <ele>50.46</ele>
        <time>2023-09-27T08:03:23Z</time>
      </trkpt>
      <trkpt lat="48.91852" lon="2.09402">
        <ele>49.5</ele>
        <time>2023-09-27T08:03:32Z</time>
      </trkpt>
      <trkpt lat="48.91862" lon="2.0942">
        <ele>49.6</ele>
        <time>2023-09-27T08:03:47Z</time>
      </trkpt>
      <trkpt lat="48.91872" lon="2.0944">
        <ele>49.48</ele>
        <time>2023-09-27T08:04:03Z</time>
      </trkpt>
      <trkpt lat="48.91888" lon="2.09466">
        <ele>49.42</ele>
        <time>2023-09-27T08:04:18Z</time>
      </trkpt>
      <trkpt lat="48.91899" lon="2.09492">
        <ele>49.27</ele>
        <time>2023-09-27T08:04:33Z</time>
      </trkpt>
      <trkpt lat="48.91911" lon="2.09513">
        <ele>48.83</ele>
        <time>2023-09-27T08:04:48Z</time>
      </trkpt>
      <trkpt lat="48.91923" lon="2.09529">
        <ele>49.04</ele>
        <time>2023-09-27T08:04:57Z</time>
      </trkpt>
      <trkpt lat="48.91924" lon="2.09531">
        <ele>48.89</ele>
        <time>2023-09-27T08:04:58Z</time>
      </trkpt>
      <trkpt lat="48.91937" lon="2.09555">
        <ele>49.48</ele>
        <time>2023-09-27T08:05:08Z</time>
      </trkpt>
      <trkpt lat="48.91947" lon="2.09573">
        <ele>48.94</ele>
        <time>2023-09-27T08:05:19Z</time>
      </trkpt>
      <trkpt lat="48.9196" lon="2.09594">
        <ele>49.32</ele>
        <time>2023-09-27T08:05:30Z</time>
      </trkpt>
      <trkpt lat="48.91962" lon="2.09595">
        <ele>49.34</ele>
        <time>2023-09-27T08:05:32Z</time>
      </trkpt>
      <trkpt lat="48.91966" lon="2.09603">
        <ele>49.12</ele>
        <time>2023-09-27T08:05:36Z</time>
      </trkpt>
      <trkpt lat="48.91981" lon="2.09626">
        <ele>49.51</ele>
        <time>2023-09-27T08:05:52Z</time>
      </trkpt>
      <trkpt lat="48.91992" lon="2.09635">
        <ele>49.23</ele>
        <time>2023-09-27T08:06:07Z</time>
      </trkpt>
      <trkpt lat="48.92009" lon="2.09648">
        <ele>49.08</ele>
        <time>2023-09-27T08:06:20Z</time>
      </trkpt>
      <trkpt lat="48.92028" lon="2.0966">
        <ele>49.19</ele>
        <time>2023-09-27T08:06:36Z</time>
      </trkpt>
      <trkpt lat="48.92035" lon="2.09661">
        <ele>49.78</ele>
        <time>2023-09-27T08:06:41Z</time>
      </trkpt>
      <trkpt lat="48.92057" lon="2.09672">
        <ele>49.53</ele>
        <time>2023-09-27T08:06:58Z</time>
      </trkpt>
      <trkpt lat="48.92071" lon="2.09662">
        <ele>48.7</ele>
        <time>2023-09-27T08:07:14Z</time>
      </trkpt>
      <trkpt lat="48.921" lon="2.09663">
        <ele>48.87</ele>
        <time>2023-09-27T08:07:28Z</time>
      </trkpt>
      <trkpt lat="48.92115" lon="2.0966">
        <ele>48.52</ele>
        <time>2023-09-27T08:07:36Z</time>
      </trkpt>
      <trkpt lat="48.92129" lon="2.09655">
        <ele>48.82</ele>
        <time>2023-09-27T08:07:47Z</time>
      </trkpt>
      <trkpt lat="48.9214" lon="2.09671">
        <ele>47.65</ele>
        <time>2023-09-27T08:08:02Z</time>
      </trkpt>
      <trkpt lat="48.92154" lon="2.09698">
        <ele>47.42</ele>
        <time>2023-09-27T08:08:17Z</time>
      </trkpt>
      <trkpt lat="48.92155" lon="2.097">
        <ele>47.59</ele>
        <time>2023-09-27T08:08:18Z</time>
      </trkpt>
      <trkpt lat="48.92156" lon="2.09723">
        <ele>47.56</ele>
        <time>2023-09-27T08:08:28Z</time>
      </trkpt>
      <trkpt lat="48.92158" lon="2.09735">
        <ele>47.82</ele>
        <time>2023-09-27T08:08:33Z</time>
      </trkpt>
      <trkpt lat="48.92163" lon="2.09777">
        <ele>46.82</ele>
        <time>2023-09-27T08:08:51Z</time>
      </trkpt>
      <trkpt lat="48.9217" lon="2.09807">
        <ele>46.05</ele>
        <time>2023-09-27T08:09:06Z</time>
      </trkpt>
      <trkpt lat="48.92172" lon="2.09818">
        <ele>46.2</ele>
        <time>2023-09-27T08:09:10Z</time>
      </trkpt>
      <trkpt lat="48.92173" lon="2.09839">
        <ele>46.65</ele>
        <time>2023-09-27T08:09:19Z</time>
      </trkpt>
      <trkpt lat="48.92176" lon="2.09858">
        <ele>46.07</ele>
        <time>2023-09-27T08:09:35Z</time>
      </trkpt>
      <trkpt lat="48.92188" lon="2.09891">
        <ele>44.89</ele>
        <time>2023-09-27T08:09:51Z</time>
      </trkpt>
      <trkpt lat="48.9219" lon="2.09897">
        <ele>45.5</ele>
        <time>2023-09-27T08:09:56Z</time>
      </trkpt>
      <trkpt lat="48.922" lon="2.09914">
        <ele>45.23</ele>
        <time>2023-09-27T08:10:08Z</time>
      </trkpt>
      <trkpt lat="48.92211" lon="2.09945">
        <ele>44.18</ele>
        <time>2023-09-27T08:10:24Z</time>
      </trkpt>
      <trkpt lat="48.92222" lon="2.09965">
        <ele>43.5</ele>
        <time>2023-09-27T08:10:39Z</time>
      </trkpt>
      <trkpt lat="48.9223" lon="2.10001">
        <ele>43.44</ele>
        <time>2023-09-27T08:10:53Z</time>
      </trkpt>
      <trkpt lat="48.92237" lon="2.10035">
        <ele>43.05</ele>
        <time>2023-09-27T08:11:05Z</time>
      </trkpt>
      <trkpt lat="48.92239" lon="2.10043">
        <ele>42.29</ele>
        <time>2023-09-27T08:11:09Z</time>
      </trkpt>
      <trkpt lat="48.92252" lon="2.10066">
        <ele>42.57</ele>
        <time>2023-09-27T08:11:25Z</time>
      </trkpt>
      <trkpt lat="48.92261" lon="2.10082">
        <ele>42.14</ele>
        <time>2023-09-27T08:11:38Z</time>
      </trkpt>
      <trkpt lat="48.92276" lon="2.10108">
        <ele>41.45</ele>
        <time>2023-09-27T08:11:53Z</time>
      </trkpt>
      <trkpt lat="48.92285" lon="2.10124">
        <ele>41.36</ele>
        <time>2023-09-27T08:12:07Z</time>
      </trkpt>
      <trkpt lat="48.92301" lon="2.10153">
        <ele>40.73</ele>
        <time>2023-09-27T08:12:23Z</time>
      </trkpt>
      <trkpt lat="48.92312" lon="2.10176">
        <ele>40.06</ele>
        <time>2023-09-27T08:12:36Z</time>
      </trkpt>
      <trkpt lat="48.92326" lon="2.10199">
        <ele>39.39</ele>
        <time>2023-09-27T08:12:51Z</time>
      </trkpt>
      <trkpt lat="48.92338" lon="2.10221">
        <ele>39.22</ele>
        <time>2023-09-27T08:13:08Z</time>
      </trkpt>
      <trkpt lat="48.92351" lon="2.10243">
        <ele>38.53</ele>
        <time>2023-09-27T08:13:23Z</time>
      </trkpt>
      <trkpt lat="48.92364" lon="2.10271">
        <ele>38.69</ele>
        <time>2023-09-27T08:13:38Z</time>
      </trkpt>
      <trkpt lat="48.92366" lon="2.10285">
        <ele>36.99</ele>
        <time>2023-09-27T08:13:48Z</time>
      </trkpt>
      <trkpt lat="48.92375" lon="2.10284">
        <ele>37.5</ele>
        <time>2023-09-27T08:13:59Z</time>
      </trkpt>
      <trkpt lat="48.9238" lon="2.10285">
        <ele>37.58</ele>
        <time>2023-09-27T08:14:13Z</time>
      </trkpt>
      <trkpt lat="48.92384" lon="2.10287">
        <ele>37.71</ele>
        <time>2023-09-27T08:14:27Z</time>
      </trkpt>
      <trkpt lat="48.92387" lon="2.10295">
        <ele>37.08</ele>
        <time>2023-09-27T08:14:53Z</time>
      </trkpt>
      <trkpt lat="48.92382" lon="2.10299">
        <ele>36.92</ele>
        <time>2023-09-27T08:15:19Z</time>
      </trkpt>
      <trkpt lat="48.92389" lon="2.10306">
        <ele>37.34</ele>
        <time>2023-09-27T08:15:47Z</time>
      </trkpt>
      <trkpt lat="48.92388" lon="2.1031">
        <ele>37.87</ele>
        <time>2023-09-27T08:16:06Z</time>
      </trkpt>
      <trkpt lat="48.92389" lon="2.10307">
        <ele>37.89</ele>
        <time>2023-09-27T08:16:27Z</time>
      </trkpt>
      <trkpt lat="48.9239" lon="2.10304">
        <ele>38.25</ele>
        <time>2023-09-27T08:16:52Z</time>
      </trkpt>
      <trkpt lat="48.9239" lon="2.103">
        <ele>38.49</ele>
        <time>2023-09-27T08:17:12Z</time>
      </trkpt>
      <trkpt lat="48.9239" lon="2.10305">
        <ele>38.84</ele>
        <time>2023-09-27T08:17:23Z</time>
      </trkpt>
      <trkpt lat="48.92391" lon="2.10313">
        <ele>39.3</ele>
        <time>2023-09-27T08:17:49Z</time>
      </trkpt>
      <trkpt lat="48.92393" lon="2.10303">
        <ele>39.95</ele>
        <time>2023-09-27T08:18:14Z</time>
      </trkpt>
      <trkpt lat="48.92398" lon="2.10288">
        <ele>39.72</ele>
        <time>2023-09-27T08:18:25Z</time>
      </trkpt>
      <trkpt lat="48.92405" lon="2.10267">
        <ele>40.46</ele>
        <time>2023-09-27T08:18:39Z</time>
      </trkpt>
      <trkpt lat="48.92404" lon="2.10268">
        <ele>39.92</ele>
        <time>2023-09-27T08:18:51Z</time>
      </trkpt>
      <trkpt lat="48.92392" lon="2.1029">
        <ele>40.82</ele>
        <time>2023-09-27T08:19:07Z</time>
      </trkpt>
      <trkpt lat="48.92386" lon="2.10291">
        <ele>40.62</ele>
        <time>2023-09-27T08:19:14Z</time>
      </trkpt>
      <trkpt lat="48.92378" lon="2.10282">
        <ele>41.22</ele>
        <time>2023-09-27T08:19:26Z</time>
      </trkpt>
      <trkpt lat="48.92372" lon="2.1027">
        <ele>40.95</ele>
        <time>2023-09-27T08:19:36Z</time>
      </trkpt>
      <trkpt lat="48.92364" lon="2.10258">
        <ele>41.14</ele>
        <time>2023-09-27T08:19:51Z</time>
      </trkpt>
      <trkpt lat="48.92358" lon="2.10246">
        <ele>41.12</ele>
        <time>2023-09-27T08:20:01Z</time>
      </trkpt>
      <trkpt lat="48.92348" lon="2.10226">
        <ele>41.16</ele>
        <time>2023-09-27T08:20:17Z</time>
      </trkpt>
      <trkpt lat="48.92344" lon="2.10223">
        <ele>41.28</ele>
        <time>2023-09-27T08:20:21Z</time>
      </trkpt>
      <trkpt lat="48.92333" lon="2.10204">
        <ele>41.5</ele>
        <time>2023-09-27T08:20:34Z</time>
      </trkpt>
      <trkpt lat="48.9232" lon="2.10182">
        <ele>41.62</ele>
        <time>2023-09-27T08:20:48Z</time>
      </trkpt>
      <trkpt lat="48.92312" lon="2.10161">
        <ele>41.23</ele>
        <time>2023-09-27T08:21:00Z</time>
      </trkpt>
      <trkpt lat="48.92298" lon="2.10138">
        <ele>41.26</ele>
        <time>2023-09-27T08:21:14Z</time>
      </trkpt>
      <trkpt lat="48.92292" lon="2.10128">
        <ele>41.2</ele>
        <time>2023-09-27T08:21:26Z</time>
      </trkpt>
      <trkpt lat="48.92296" lon="2.10134">
        <ele>41.52</ele>
        <time>2023-09-27T08:21:42Z</time>
      </trkpt>
      <trkpt lat="48.923" lon="2.1014">
        <ele>41.05</ele>
        <time>2023-09-27T08:21:48Z</time>
      </trkpt>
      <trkpt lat="48.92304" lon="2.10143">
        <ele>40.79</ele>
        <time>2023-09-27T08:21:53Z</time>
      </trkpt>
      <trkpt lat="48.92316" lon="2.1017">
        <ele>40.66</ele>
        <time>2023-09-27T08:22:10Z</time>
      </trkpt>
      <trkpt lat="48.9233" lon="2.10189">
        <ele>40.1</ele>
        <time>2023-09-27T08:22:25Z</time>
      </trkpt>
      <trkpt lat="48.92343" lon="2.10209">
        <ele>40.3</ele>
        <time>2023-09-27T08:22:40Z</time>
      </trkpt>
      <trkpt lat="48.92358" lon="2.10231">
        <ele>39.46</ele>
        <time>2023-09-27T08:22:57Z</time>
      </trkpt>
      <trkpt lat="48.9237" lon="2.10255">
        <ele>39.83</ele>
        <time>2023-09-27T08:23:13Z</time>
      </trkpt>
      <trkpt lat="48.92379" lon="2.10278">
        <ele>40.2</ele>
        <time>2023-09-27T08:23:28Z</time>
      </trkpt>
      <trkpt lat="48.9239" lon="2.10298">
        <ele>39.24</ele>
        <time>2023-09-27T08:23:40Z</time>
      </trkpt>
      <trkpt lat="48.92391" lon="2.10299">
        <ele>39.31</ele>
        <time>2023-09-27T08:23:41Z</time>
      </trkpt>
      <trkpt lat="48.92408" lon="2.10313">
        <ele>39.58</ele>
        <time>2023-09-27T08:23:52Z</time>
      </trkpt>
      <trkpt lat="48.9242" lon="2.10314">
        <ele>38.66</ele>
        <time>2023-09-27T08:24:03Z</time>
      </trkpt>
      <trkpt lat="48.92433" lon="2.10303">
        <ele>38.03</ele>
        <time>2023-09-27T08:24:19Z</time>
      </trkpt>
      <trkpt lat="48.92449" lon="2.10289">
        <ele>37.92</ele>
        <time>2023-09-27T08:24:34Z</time>
      </trkpt>
      <trkpt lat="48.92462" lon="2.1028">
        <ele>38.09</ele>
        <time>2023-09-27T08:24:43Z</time>
      </trkpt>
      <trkpt lat="48.92483" lon="2.1026">
        <ele>37.58</ele>
        <time>2023-09-27T08:25:00Z</time>
      </trkpt>
      <trkpt lat="48.92504" lon="2.10243">
        <ele>37.75</ele>
        <time>2023-09-27T08:25:18Z</time>
      </trkpt>
      <trkpt lat="48.92521" lon="2.10229">
        <ele>37.79</ele>
        <time>2023-09-27T08:25:30Z</time>
      </trkpt>
      <trkpt lat="48.92539" lon="2.10203">
        <ele>37.83</ele>
        <time>2023-09-27T08:25:46Z</time>
      </trkpt>
      <trkpt lat="48.92549" lon="2.10183">
        <ele>37.76</ele>
        <time>2023-09-27T08:25:57Z</time>
      </trkpt>
      <trkpt lat="48.92561" lon="2.10172">
        <ele>37.1</ele>
        <time>2023-09-27T08:26:11Z</time>
      </trkpt>
      <trkpt lat="48.92566" lon="2.10171">
        <ele>37.2</ele>
        <time>2023-09-27T08:26:13Z</time>
      </trkpt>
      <trkpt lat="48.9259" lon="2.10159">
        <ele>37.26</ele>
        <time>2023-09-27T08:26:28Z</time>
      </trkpt>
      <trkpt lat="48.92613" lon="2.10141">
        <ele>36.67</ele>
        <time>2023-09-27T08:26:44Z</time>
      </trkpt>
      <trkpt lat="48.92624" lon="2.10129">
        <ele>36.47</ele>
        <time>2023-09-27T08:26:52Z</time>
      </trkpt>
      <trkpt lat="48.9263" lon="2.10126">
        <ele>36.43</ele>
        <time>2023-09-27T08:26:55Z</time>
      </trkpt>
      <trkpt lat="48.92642" lon="2.1011">
        <ele>35.76</ele>
        <time>2023-09-27T08:27:06Z</time>
      </trkpt>
      <trkpt lat="48.92652" lon="2.10102">
        <ele>36.17</ele>
        <time>2023-09-27T08:27:16Z</time>
      </trkpt>
      <trkpt lat="48.92666" lon="2.10089">
        <ele>35.49</ele>
        <time>2023-09-27T08:27:29Z</time>
      </trkpt>
      <trkpt lat="48.92671" lon="2.1008">
        <ele>35.4</ele>
        <time>2023-09-27T08:27:32Z</time>
      </trkpt>
      <trkpt lat="48.92676" lon="2.10073">
        <ele>35.56</ele>
        <time>2023-09-27T08:27:36Z</time>
      </trkpt>
      <trkpt lat="48.92697" lon="2.10048">
        <ele>34.72</ele>
        <time>2023-09-27T08:27:53Z</time>
      </trkpt>
      <trkpt lat="48.92712" lon="2.10033">
        <ele>34.09</ele>
        <time>2023-09-27T08:28:05Z</time>
      </trkpt>
      <trkpt lat="48.92718" lon="2.10027">
        <ele>34.75</ele>
        <time>2023-09-27T08:28:12Z</time>
      </trkpt>
      <trkpt lat="48.92724" lon="2.10025">
        <ele>34.25</ele>
        <time>2023-09-27T08:28:26Z</time>
      </trkpt>
      <trkpt lat="48.92731" lon="2.10013">
        <ele>34.62</ele>
        <time>2023-09-27T08:28:43Z</time>
      </trkpt>
      <trkpt lat="48.92743" lon="2.10004">
        <ele>33.88</ele>
        <time>2023-09-27T08:28:57Z</time>
      </trkpt>
      <trkpt lat="48.92759" lon="2.0999">
        <ele>34.02</ele>
        <time>2023-09-27T08:29:12Z</time>
      </trkpt>
      <trkpt lat="48.92768" lon="2.09974">
        <ele>33.69</ele>
        <time>2023-09-27T08:29:23Z</time>
      </trkpt>
      <trkpt lat="48.92773" lon="2.09973">
        <ele>33.49</ele>
        <time>2023-09-27T08:29:27Z</time>
      </trkpt>
      <trkpt lat="48.92779" lon="2.09969">
        <ele>33.5</ele>
        <time>2023-09-27T08:29:34Z</time>
      </trkpt>
      <trkpt lat="48.92804" lon="2.09953">
        <ele>33.5</ele>
        <time>2023-09-27T08:29:52Z</time>
      </trkpt>
      <trkpt lat="48.92823" lon="2.09934">
        <ele>32.77</ele>
        <time>2023-09-27T08:30:07Z</time>
      </trkpt>
      <trkpt lat="48.92844" lon="2.09921">
        <ele>33.03</ele>
        <time>2023-09-27T08:30:22Z</time>
      </trkpt>
      <trkpt lat="48.9285" lon="2.09933">
        <ele>32.71</ele>
        <time>2023-09-27T08:30:39Z</time>
      </trkpt>
      <trkpt lat="48.92851" lon="2.09944">
        <ele>31.92</ele>
        <time>2023-09-27T08:30:46Z</time>
      </trkpt>
      <trkpt lat="48.92854" lon="2.09948">
        <ele>32.34</ele>
        <time>2023-09-27T08:30:49Z</time>
      </trkpt>
      <trkpt lat="48.92862" lon="2.09965">
        <ele>32.1</ele>
        <time>2023-09-27T08:30:59Z</time>
      </trkpt>
      <trkpt lat="48.92866" lon="2.09991">
        <ele>31.73</ele>
        <time>2023-09-27T08:31:12Z</time>
      </trkpt>
      <trkpt lat="48.92873" lon="2.10023">
        <ele>31.84</ele>
        <time>2023-09-27T08:31:28Z</time>
      </trkpt>
      <trkpt lat="48.92882" lon="2.10065">
        <ele>31.03</ele>
        <time>2023-09-27T08:31:44Z</time>
      </trkpt>
      <trkpt lat="48.92888" lon="2.10101">
        <ele>31.1</ele>
        <time>2023-09-27T08:32:01Z</time>
      </trkpt>
      <trkpt lat="48.92893" lon="2.10132">
        <ele>30.58</ele>
        <time>2023-09-27T08:32:19Z</time>
      </trkpt>
      <trkpt lat="48.92897" lon="2.1016">
        <ele>29.98</ele>
        <time>2023-09-27T08:32:36Z</time>
      </trkpt>
      <trkpt lat="48.92901" lon="2.10202">
        <ele>30.2</ele>
        <time>2023-09-27T08:32:55Z</time>
      </trkpt>
      <trkpt lat="48.92906" lon="2.10242">
        <ele>29.37</ele>
        <time>2023-09-27T08:33:13Z</time>
      </trkpt>
      <trkpt lat="48.92906" lon="2.10273">
        <ele>29.28</ele>
        <time>2023-09-27T08:33:28Z</time>
      </trkpt>
      <trkpt lat="48.92909" lon="2.10308">
        <ele>28.35</ele>
        <time>2023-09-27T08:33:44Z</time>
      </trkpt>
      <trkpt lat="48.92918" lon="2.10342">
        <ele>27.37</ele>
        <time>2023-09-27T08:34:00Z</time>
      </trkpt>
      <trkpt lat="48.92919" lon="2.10347">
        <ele>27.4</ele>
        <time>2023-09-27T08:34:01Z</time>
      </trkpt>
      <trkpt lat="48.92933" lon="2.10386">
        <ele>27.27</ele>
        <time>2023-09-27T08:34:21Z</time>
      </trkpt>
      <trkpt lat="48.9294" lon="2.10414">
        <ele>26.2</ele>
        <time>2023-09-27T08:34:34Z</time>
      </trkpt>
      <trkpt lat="48.92945" lon="2.10451">
        <ele>25.74</ele>
        <time>2023-09-27T08:34:52Z</time>
      </trkpt>
      <trkpt lat="48.9295" lon="2.10466">
        <ele>25.14</ele>
        <time>2023-09-27T08:35:01Z</time>
      </trkpt>
      <trkpt lat="48.92959" lon="2.10496">
        <ele>23.96</ele>
        <time>2023-09-27T08:35:16Z</time>
      </trkpt>
      <trkpt lat="48.92967" lon="2.10532">
        <ele>23.99</ele>
        <time>2023-09-27T08:35:30Z</time>
      </trkpt>
      <trkpt lat="48.92977" lon="2.10568">
        <ele>23.17</ele>
        <time>2023-09-27T08:35:46Z</time>
      </trkpt>
      <trkpt lat="48.92983" lon="2.10603">
        <ele>21.18</ele>
        <time>2023-09-27T08:36:02Z</time>
      </trkpt>
      <trkpt lat="48.92981" lon="2.10629">
        <ele>20.83</ele>
        <time>2023-09-27T08:36:18Z</time>
      </trkpt>
      <trkpt lat="48.93003" lon="2.10651">
        <ele>20.08</ele>
        <time>2023-09-27T08:36:34Z</time>
      </trkpt>
      <trkpt lat="48.93026" lon="2.10667">
        <ele>19.79</ele>
        <time>2023-09-27T08:36:50Z</time>
      </trkpt>
      <trkpt lat="48.93035" lon="2.10673">
        <ele>20.78</ele>
        <time>2023-09-27T08:36:58Z</time>
      </trkpt>
      <trkpt lat="48.93053" lon="2.10696">
        <ele>22.17</ele>
        <time>2023-09-27T08:37:13Z</time>
      </trkpt>
      <trkpt lat="48.93067" lon="2.10719">
        <ele>22.21</ele>
        <time>2023-09-27T08:37:28Z</time>
      </trkpt>
      <trkpt lat="48.93077" lon="2.1074">
        <ele>21.72</ele>
        <time>2023-09-27T08:37:44Z</time>
      </trkpt>
      <trkpt lat="48.93093" lon="2.10767">
        <ele>21.71</ele>
        <time>2023-09-27T08:38:00Z</time>
      </trkpt>
      <trkpt lat="48.93095" lon="2.10773">
        <ele>21.3</ele>
        <time>2023-09-27T08:38:02Z</time>
      </trkpt>
      <trkpt lat="48.93101" lon="2.10798">
        <ele>21.25</ele>
        <time>2023-09-27T08:38:12Z</time>
      </trkpt>
      <trkpt lat="48.93106" lon="2.10826">
        <ele>21.21</ele>
        <time>2023-09-27T08:38:26Z</time>
      </trkpt>
      <trkpt lat="48.93116" lon="2.10865">
        <ele>21.02</ele>
        <time>2023-09-27T08:38:40Z</time>
      </trkpt>
      <trkpt lat="48.93124" lon="2.1088">
        <ele>21.19</ele>
        <time>2023-09-27T08:38:49Z</time>
      </trkpt>
      <trkpt lat="48.93139" lon="2.10901">
        <ele>21.2</ele>
        <time>2023-09-27T08:39:06Z</time>
      </trkpt>
      <trkpt lat="48.93151" lon="2.10913">
        <ele>21.14</ele>
        <time>2023-09-27T08:39:16Z</time>
      </trkpt>
      <trkpt lat="48.93173" lon="2.10924">
        <ele>21.29</ele>
        <time>2023-09-27T08:39:35Z</time>
      </trkpt>
      <trkpt lat="48.93193" lon="2.10934">
        <ele>21.19</ele>
        <time>2023-09-27T08:39:51Z</time>
      </trkpt>
      <trkpt lat="48.93218" lon="2.10937">
        <ele>21.44</ele>
        <time>2023-09-27T08:40:09Z</time>
      </trkpt>
      <trkpt lat="48.93229" lon="2.10936">
        <ele>21.3</ele>
        <time>2023-09-27T08:40:19Z</time>
      </trkpt>
      <trkpt lat="48.93247" lon="2.10933">
        <ele>21.83</ele>
        <time>2023-09-27T08:40:33Z</time>
      </trkpt>
      <trkpt lat="48.93267" lon="2.10923">
        <ele>21.52</ele>
        <time>2023-09-27T08:40:47Z</time>
      </trkpt>
      <trkpt lat="48.93272" lon="2.1092">
        <ele>21.58</ele>
        <time>2023-09-27T08:40:50Z</time>
      </trkpt>
      <trkpt lat="48.93294" lon="2.10917">
        <ele>22.21</ele>
        <time>2023-09-27T08:41:06Z</time>
      </trkpt>
      <trkpt lat="48.93318" lon="2.10918">
        <ele>21.38</ele>
        <time>2023-09-27T08:41:20Z</time>
      </trkpt>
      <trkpt lat="48.93341" lon="2.10922">
        <ele>21.09</ele>
        <time>2023-09-27T08:41:36Z</time>
      </trkpt>
      <trkpt lat="48.93349" lon="2.10927">
        <ele>21.17</ele>
        <time>2023-09-27T08:41:52Z</time>
      </trkpt>
      <trkpt lat="48.93369" lon="2.10937">
        <ele>21.1</ele>
        <time>2023-09-27T08:42:06Z</time>
      </trkpt>
      <trkpt lat="48.93382" lon="2.10945">
        <ele>20.49</ele>
        <time>2023-09-27T08:42:16Z</time>
      </trkpt>
      <trkpt lat="48.93385" lon="2.1098">
        <ele>20.7</ele>
        <time>2023-09-27T08:42:31Z</time>
      </trkpt>
      <trkpt lat="48.93384" lon="2.11014">
        <ele>20.33</ele>
        <time>2023-09-27T08:42:47Z</time>
      </trkpt>
      <trkpt lat="48.93378" lon="2.11043">
        <ele>20.21</ele>
        <time>2023-09-27T08:43:03Z</time>
      </trkpt>
      <trkpt lat="48.93376" lon="2.11069">
        <ele>20.55</ele>
        <time>2023-09-27T08:43:13Z</time>
      </trkpt>
      <trkpt lat="48.93372" lon="2.11094">
        <ele>21.31</ele>
        <time>2023-09-27T08:43:26Z</time>
      </trkpt>
      <trkpt lat="48.93369" lon="2.11126">
        <ele>21.28</ele>
        <time>2023-09-27T08:43:43Z</time>
      </trkpt>
      <trkpt lat="48.93365" lon="2.1116">
        <ele>21.19</ele>
        <time>2023-09-27T08:44:00Z</time>
      </trkpt>
      <trkpt lat="48.9336" lon="2.11199">
        <ele>21.26</ele>
        <time>2023-09-27T08:44:15Z</time>
      </trkpt>
      <trkpt lat="48.93358" lon="2.11223">
        <ele>21.66</ele>
        <time>2023-09-27T08:44:26Z</time>
      </trkpt>
      <trkpt lat="48.93356" lon="2.11247">
        <ele>21.36</ele>
        <time>2023-09-27T08:44:38Z</time>
      </trkpt>
      <trkpt lat="48.93356" lon="2.11268">
        <ele>21.51</ele>
        <time>2023-09-27T08:44:47Z</time>
      </trkpt>
      <trkpt lat="48.93355" lon="2.11277">
        <ele>21.57</ele>
        <time>2023-09-27T08:44:51Z</time>
      </trkpt>
      <trkpt lat="48.93355" lon="2.11288">
        <ele>21.33</ele>
        <time>2023-09-27T08:44:57Z</time>
      </trkpt>
      <trkpt lat="48.93353" lon="2.11306">
        <ele>21.44</ele>
        <time>2023-09-27T08:45:02Z</time>
      </trkpt>
      <trkpt lat="48.93349" lon="2.11337">
        <ele>21.73</ele>
        <time>2023-09-27T08:45:13Z</time>
      </trkpt>
      <trkpt lat="48.93345" lon="2.11361">
        <ele>21.37</ele>
        <time>2023-09-27T08:45:22Z</time>
      </trkpt>
      <trkpt lat="48.93343" lon="2.1138">
        <ele>21.98</ele>
        <time>2023-09-27T08:45:29Z</time>
      </trkpt>
      <trkpt lat="48.93341" lon="2.11398">
        <ele>21.56</ele>
        <time>2023-09-27T08:45:39Z</time>
      </trkpt>
      <trkpt lat="48.93341" lon="2.11405">
        <ele>21.93</ele>
        <time>2023-09-27T08:45:42Z</time>
      </trkpt>
      <trkpt lat="48.93337" lon="2.11432">
        <ele>21.95</ele>
        <time>2023-09-27T08:45:55Z</time>
      </trkpt>
      <trkpt lat="48.93333" lon="2.11448">
        <ele>21.52</ele>
        <time>2023-09-27T08:46:02Z</time>
      </trkpt>
      <trkpt lat="48.93331" lon="2.11456">
        <ele>21.6</ele>
        <time>2023-09-27T08:46:06Z</time>
      </trkpt>
      <trkpt lat="48.93326" lon="2.1147">
        <ele>22.71</ele>
        <time>2023-09-27T08:46:22Z</time>
      </trkpt>
      <trkpt lat="48.9332" lon="2.11465">
        <ele>21.82</ele>
        <time>2023-09-27T08:46:30Z</time>
      </trkpt>
      <trkpt lat="48.93324" lon="2.11467">
        <ele>22.13</ele>
        <time>2023-09-27T08:46:51Z</time>
      </trkpt>
      <trkpt lat="48.93325" lon="2.11467">
        <ele>22.2</ele>
        <time>2023-09-27T08:46:52Z</time>
      </trkpt>
      <trkpt lat="48.93325" lon="2.11479">
        <ele>22.48</ele>
        <time>2023-09-27T08:47:13Z</time>
      </trkpt>
      <trkpt lat="48.93325" lon="2.11477">
        <ele>22.81</ele>
        <time>2023-09-27T08:47:33Z</time>
      </trkpt>
      <trkpt lat="48.93322" lon="2.11476">
        <ele>23.93</ele>
        <time>2023-09-27T08:47:53Z</time>
      </trkpt>
      <trkpt lat="48.93325" lon="2.1148">
        <ele>23.97</ele>
        <time>2023-09-27T08:48:13Z</time>
      </trkpt>
      <trkpt lat="48.93323" lon="2.11478">
        <ele>24.31</ele>
        <time>2023-09-27T08:48:31Z</time>
      </trkpt>
      <trkpt lat="48.93315" lon="2.11476">
        <ele>24.31</ele>
        <time>2023-09-27T08:48:46Z</time>
      </trkpt>
      <trkpt lat="48.93308" lon="2.1147">
        <ele>24.34</ele>
        <time>2023-09-27T08:48:54Z</time>
      </trkpt>
      <trkpt lat="48.93293" lon="2.11458">
        <ele>25.38</ele>
        <time>2023-09-27T08:49:09Z</time>
      </trkpt>
      <trkpt lat="48.93273" lon="2.11439">
        <ele>25.7</ele>
        <time>2023-09-27T08:49:25Z</time>
      </trkpt>
      <trkpt lat="48.93255" lon="2.11423">
        <ele>26.44</ele>
        <time>2023-09-27T08:49:40Z</time>
      </trkpt>
      <trkpt lat="48.93242" lon="2.11414">
        <ele>26.85</ele>
        <time>2023-09-27T08:49:51Z</time>
      </trkpt>
      <trkpt lat="48.93221" lon="2.11398">
        <ele>27.4</ele>
        <time>2023-09-27T08:50:06Z</time>
      </trkpt>
      <trkpt lat="48.93216" lon="2.11392">
        <ele>27.78</ele>
        <time>2023-09-27T08:50:11Z</time>
      </trkpt>
      <trkpt lat="48.93195" lon="2.11375">
        <ele>28.6</ele>
        <time>2023-09-27T08:50:28Z</time>
      </trkpt>
      <trkpt lat="48.93185" lon="2.11364">
        <ele>28.37</ele>
        <time>2023-09-27T08:50:36Z</time>
      </trkpt>
      <trkpt lat="48.93168" lon="2.11352">
        <ele>28.71</ele>
        <time>2023-09-27T08:50:49Z</time>
      </trkpt>
      <trkpt lat="48.93154" lon="2.11343">
        <ele>29.01</ele>
        <time>2023-09-27T08:51:01Z</time>
      </trkpt>
      <trkpt lat="48.93137" lon="2.11332">
        <ele>28.87</ele>
        <time>2023-09-27T08:51:14Z</time>
      </trkpt>
      <trkpt lat="48.93126" lon="2.11353">
        <ele>29.76</ele>
        <time>2023-09-27T08:51:29Z</time>
      </trkpt>
      <trkpt lat="48.93116" lon="2.11377">
        <ele>29.87</ele>
        <time>2023-09-27T08:51:45Z</time>
      </trkpt>
      <trkpt lat="48.93106" lon="2.114">
        <ele>29.72</ele>
        <time>2023-09-27T08:51:59Z</time>
      </trkpt>
      <trkpt lat="48.93098" lon="2.11413">
        <ele>29.38</ele>
        <time>2023-09-27T08:52:06Z</time>
      </trkpt>
      <trkpt lat="48.93095" lon="2.11421">
        <ele>29.55</ele>
        <time>2023-09-27T08:52:10Z</time>
      </trkpt>
      <trkpt lat="48.93089" lon="2.11443">
        <ele>29.95</ele>
        <time>2023-09-27T08:52:23Z</time>
      </trkpt>
      <trkpt lat="48.93088" lon="2.11449">
        <ele>29.98</ele>
        <time>2023-09-27T08:52:27Z</time>
      </trkpt>
      <trkpt lat="48.93073" lon="2.11482">
        <ele>29.88</ele>
        <time>2023-09-27T08:52:45Z</time>
      </trkpt>
      <trkpt lat="48.93073" lon="2.11493">
        <ele>29.83</ele>
        <time>2023-09-27T08:52:50Z</time>
      </trkpt>
      <trkpt lat="48.93073" lon="2.11531">
        <ele>29.5</ele>
        <time>2023-09-27T08:53:08Z</time>
      </trkpt>
      <trkpt lat="48.93078" lon="2.11559">
        <ele>29.43</ele>
        <time>2023-09-27T08:53:24Z</time>
      </trkpt>
      <trkpt lat="48.93082" lon="2.11575">
        <ele>29.46</ele>
        <time>2023-09-27T08:53:34Z</time>
      </trkpt>
      <trkpt lat="48.93082" lon="2.11591">
        <ele>29.47</ele>
        <time>2023-09-27T08:53:39Z</time>
      </trkpt>
      <trkpt lat="48.93087" lon="2.11607">
        <ele>29.03</ele>
        <time>2023-09-27T08:53:54Z</time>
      </trkpt>
      <trkpt lat="48.93092" lon="2.11635">
        <ele>29.19</ele>
        <time>2023-09-27T08:54:12Z</time>
      </trkpt>
      <trkpt lat="48.93094" lon="2.11648">
        <ele>28.7</ele>
        <time>2023-09-27T08:54:20Z</time>
      </trkpt>
      <trkpt lat="48.93096" lon="2.11656">
        <ele>28.69</ele>
        <time>2023-09-27T08:54:23Z</time>
      </trkpt>
      <trkpt lat="48.93101" lon="2.11686">
        <ele>28.12</ele>
        <time>2023-09-27T08:54:42Z</time>
      </trkpt>
      <trkpt lat="48.93107" lon="2.11713">
        <ele>27.98</ele>
        <time>2023-09-27T08:54:58Z</time>
      </trkpt>
      <trkpt lat="48.93112" lon="2.11742">
        <ele>27.66</ele>
        <time>2023-09-27T08:55:14Z</time>
      </trkpt>
      <trkpt lat="48.93118" lon="2.1178">
        <ele>26.48</ele>
        <time>2023-09-27T08:55:29Z</time>
      </trkpt>
      <trkpt lat="48.93124" lon="2.11808">
        <ele>26.63</ele>
        <time>2023-09-27T08:55:43Z</time>
      </trkpt>
      <trkpt lat="48.93126" lon="2.11834">
        <ele>25.47</ele>
        <time>2023-09-27T08:55:58Z</time>
      </trkpt>
      <trkpt lat="48.93131" lon="2.11861">
        <ele>24.81</ele>
        <time>2023-09-27T08:56:14Z</time>
      </trkpt>
      <trkpt lat="48.93135" lon="2.1189">
        <ele>23.96</ele>
        <time>2023-09-27T08:56:30Z</time>
      </trkpt>
      <trkpt lat="48.9314" lon="2.11904">
        <ele>23.46</ele>
        <time>2023-09-27T08:56:40Z</time>
      </trkpt>
      <trkpt lat="48.93146" lon="2.11932">
        <ele>22.19</ele>
        <time>2023-09-27T08:56:56Z</time>
      </trkpt>
      <trkpt lat="48.93149" lon="2.11948">
        <ele>21.8</ele>
        <time>2023-09-27T08:57:05Z</time>
      </trkpt>
      <trkpt lat="48.93156" lon="2.11983">
        <ele>19.49</ele>
        <time>2023-09-27T08:57:22Z</time>
      </trkpt>
      <trkpt lat="48.93164" lon="2.12018">
        <ele>18.34</ele>
        <time>2023-09-27T08:57:38Z</time>
      </trkpt>
      <trkpt lat="48.93167" lon="2.12044">
        <ele>15.78</ele>
        <time>2023-09-27T08:57:49Z</time>
      </trkpt>
      <trkpt lat="48.93167" lon="2.12049">
        <ele>15.05</ele>
        <time>2023-09-27T08:57:51Z</time>
      </trkpt>
      <trkpt lat="48.93171" lon="2.12089">
        <ele>14.07</ele>
        <time>2023-09-27T08:58:03Z</time>
      </trkpt>
      <trkpt lat="48.93174" lon="2.12112">
        <ele>12.99</ele>
        <time>2023-09-27T08:58:20Z</time>
      </trkpt>
      <trkpt lat="48.93172" lon="2.12139">
        <ele>12.61</ele>
        <time>2023-09-27T08:58:35Z</time>
      </trkpt>
      <trkpt lat="48.93169" lon="2.12141">
        <ele>12.12</ele>
        <time>2023-09-27T08:58:38Z</time>
      </trkpt>
      <trkpt lat="48.93168" lon="2.1217">
        <ele>11.93</ele>
        <time>2023-09-27T08:58:51Z</time>
      </trkpt>
      <trkpt lat="48.93174" lon="2.12197">
        <ele>11.65</ele>
        <time>2023-09-27T08:59:01Z</time>
      </trkpt>
      <trkpt lat="48.9318" lon="2.1221">
        <ele>11</ele>
        <time>2023-09-27T08:59:10Z</time>
      </trkpt>
      <trkpt lat="48.93181" lon="2.12211">
        <ele>11.04</ele>
        <time>2023-09-27T08:59:12Z</time>
      </trkpt>
      <trkpt lat="48.93183" lon="2.12234">
        <ele>10.16</ele>
        <time>2023-09-27T08:59:25Z</time>
      </trkpt>
      <trkpt lat="48.93187" lon="2.12243">
        <ele>10.66</ele>
        <time>2023-09-27T08:59:33Z</time>
      </trkpt>
      <trkpt lat="48.93189" lon="2.12246">
        <ele>10.54</ele>
        <time>2023-09-27T08:59:35Z</time>
      </trkpt>
      <trkpt lat="48.93197" lon="2.12259">
        <ele>9.21</ele>
        <time>2023-09-27T08:59:50Z</time>
      </trkpt>
      <trkpt lat="48.93202" lon="2.12265">
        <ele>8.98</ele>
        <time>2023-09-27T08:59:58Z</time>
      </trkpt>
      <trkpt lat="48.93209" lon="2.12276">
        <ele>9.09</ele>
        <time>2023-09-27T09:00:19Z</time>
      </trkpt>
      <trkpt lat="48.93208" lon="2.1228">
        <ele>9.65</ele>
        <time>2023-09-27T09:00:31Z</time>
      </trkpt>
      <trkpt lat="48.93211" lon="2.12284">
        <ele>9.12</ele>
        <time>2023-09-27T09:00:53Z</time>
      </trkpt>
      <trkpt lat="48.93211" lon="2.12287">
        <ele>8.95</ele>
        <time>2023-09-27T09:01:09Z</time>
      </trkpt>
      <trkpt lat="48.93209" lon="2.12299">
        <ele>9.15</ele>
        <time>2023-09-27T09:01:29Z</time>
      </trkpt>
      <trkpt lat="48.93209" lon="2.12303">
        <ele>10.5</ele>
        <time>2023-09-27T09:01:31Z</time>
      </trkpt>
      <trkpt lat="48.93208" lon="2.12307">
        <ele>9.16</ele>
        <time>2023-09-27T09:01:39Z</time>
      </trkpt>
      <trkpt lat="48.93209" lon="2.12307">
        <ele>8.82</ele>
        <time>2023-09-27T09:01:56Z</time>
      </trkpt>
      <trkpt lat="48.93209" lon="2.12306">
        <ele>9.39</ele>
        <time>2023-09-27T09:02:18Z</time>
      </trkpt>
      <trkpt lat="48.93209" lon="2.12311">
        <ele>9.93</ele>
        <time>2023-09-27T09:02:35Z</time>
      </trkpt>
      <trkpt lat="48.93215" lon="2.12317">
        <ele>9.6</ele>
        <time>2023-09-27T09:02:52Z</time>
      </trkpt>
      <trkpt lat="48.93213" lon="2.12318">
        <ele>10.1</ele>
        <time>2023-09-27T09:03:10Z</time>
      </trkpt>
      <trkpt lat="48.93212" lon="2.1232">
        <ele>10.15</ele>
        <time>2023-09-27T09:03:15Z</time>
      </trkpt>
      <trkpt lat="48.93209" lon="2.12319">
        <ele>9.86</ele>
        <time>2023-09-27T09:03:34Z</time>
      </trkpt>
      <trkpt lat="48.93207" lon="2.12316">
        <ele>10.33</ele>
        <time>2023-09-27T09:03:54Z</time>
      </trkpt>
      <trkpt lat="48.93208" lon="2.12321">
        <ele>10.19</ele>
        <time>2023-09-27T09:04:06Z</time>
      </trkpt>
      <trkpt lat="48.93206" lon="2.1232">
        <ele>11.02</ele>
        <time>2023-09-27T09:04:40Z</time>
      </trkpt>
      <trkpt lat="48.93205" lon="2.1232">
        <ele>10.64</ele>
        <time>2023-09-27T09:05:01Z</time>
      </trkpt>
      <trkpt lat="48.93207" lon="2.12322">
        <ele>11.04</ele>
        <time>2023-09-27T09:05:21Z</time>
      </trkpt>
      <trkpt lat="48.93208" lon="2.12322">
        <ele>11.05</ele>
        <time>2023-09-27T09:05:25Z</time>
      </trkpt>
      <trkpt lat="48.93208" lon="2.1232">
        <ele>11.26</ele>
        <time>2023-09-27T09:05:41Z</time>
      </trkpt>
      <trkpt lat="48.93211" lon="2.12327">
        <ele>11.43</ele>
        <time>2023-09-27T09:06:07Z</time>
      </trkpt>
      <trkpt lat="48.9321" lon="2.12324">
        <ele>12.08</ele>
        <time>2023-09-27T09:06:29Z</time>
      </trkpt>
      <trkpt lat="48.9321" lon="2.12325">
        <ele>12.2</ele>
        <time>2023-09-27T09:06:50Z</time>
      </trkpt>
      <trkpt lat="48.93211" lon="2.12322">
        <ele>12.7</ele>
        <time>2023-09-27T09:07:07Z</time>
      </trkpt>
      <trkpt lat="48.93209" lon="2.1232">
        <ele>13.16</ele>
        <time>2023-09-27T09:07:31Z</time>
      </trkpt>
      <trkpt lat="48.9321" lon="2.1232">
        <ele>13.06</ele>
        <time>2023-09-27T09:07:52Z</time>
      </trkpt>
      <trkpt lat="48.93209" lon="2.12318">
        <ele>13.83</ele>
        <time>2023-09-27T09:08:12Z</time>
      </trkpt>
      <trkpt lat="48.93209" lon="2.12319">
        <ele>14.29</ele>
        <time>2023-09-27T09:08:31Z</time>
      </trkpt>
      <trkpt lat="48.93212" lon="2.12324">
        <ele>14.81</ele>
        <time>2023-09-27T09:08:50Z</time>
      </trkpt>
      <trkpt lat="48.93213" lon="2.12323">
        <ele>14.77</ele>
        <time>2023-09-27T09:09:12Z</time>
      </trkpt>
      <trkpt lat="48.93213" lon="2.12327">
        <ele>14.92</ele>
        <time>2023-09-27T09:09:30Z</time>
      </trkpt>
      <trkpt lat="48.93215" lon="2.12328">
        <ele>16.06</ele>
        <time>2023-09-27T09:09:57Z</time>
      </trkpt>
      <trkpt lat="48.93213" lon="2.12326">
        <ele>16</ele>
        <time>2023-09-27T09:10:17Z</time>
      </trkpt>
      <trkpt lat="48.93213" lon="2.12327">
        <ele>16.25</ele>
        <time>2023-09-27T09:10:37Z</time>
      </trkpt>
      <trkpt lat="48.93213" lon="2.12325">
        <ele>16.56</ele>
        <time>2023-09-27T09:11:01Z</time>
      </trkpt>
      <trkpt lat="48.93211" lon="2.12323">
        <ele>17.08</ele>
        <time>2023-09-27T09:11:24Z</time>
      </trkpt>
      <trkpt lat="48.93212" lon="2.12323">
        <ele>17</ele>
        <time>2023-09-27T09:11:48Z</time>
      </trkpt>
      <trkpt lat="48.93213" lon="2.12325">
        <ele>17</ele>
        <time>2023-09-27T09:12:12Z</time>
      </trkpt>
      <trkpt lat="48.93208" lon="2.12323">
        <ele>17.34</ele>
        <time>2023-09-27T09:12:35Z</time>
      </trkpt>
      <trkpt lat="48.9321" lon="2.12318">
        <ele>18.32</ele>
        <time>2023-09-27T09:13:01Z</time>
      </trkpt>
      <trkpt lat="48.9321" lon="2.12316">
        <ele>18.4</ele>
        <time>2023-09-27T09:13:26Z</time>
      </trkpt>
      <trkpt lat="48.93209" lon="2.12317">
        <ele>18.3</ele>
        <time>2023-09-27T09:13:47Z</time>
      </trkpt>
      <trkpt lat="48.93208" lon="2.12317">
        <ele>19.04</ele>
        <time>2023-09-27T09:14:06Z</time>
      </trkpt>
      <trkpt lat="48.93205" lon="2.12319">
        <ele>18.99</ele>
        <time>2023-09-27T09:14:22Z</time>
      </trkpt>
      <trkpt lat="48.93204" lon="2.12321">
        <ele>18.66</ele>
        <time>2023-09-27T09:14:39Z</time>
      </trkpt>
      <trkpt lat="48.932" lon="2.1232">
        <ele>19.1</ele>
        <time>2023-09-27T09:14:57Z</time>
      </trkpt>
      <trkpt lat="48.93204" lon="2.12317">
        <ele>19.63</ele>
        <time>2023-09-27T09:15:11Z</time>
      </trkpt>
      <trkpt lat="48.93205" lon="2.12316">
        <ele>19.47</ele>
        <time>2023-09-27T09:15:31Z</time>
      </trkpt>
      <trkpt lat="48.93201" lon="2.12319">
        <ele>19.91</ele>
        <time>2023-09-27T09:15:45Z</time>
      </trkpt>
      <trkpt lat="48.932" lon="2.12318">
        <ele>19.75</ele>
        <time>2023-09-27T09:16:09Z</time>
      </trkpt>
      <trkpt lat="48.93202" lon="2.12322">
        <ele>20.14</ele>
        <time>2023-09-27T09:16:29Z</time>
      </trkpt>
      <trkpt lat="48.93202" lon="2.12323">
        <ele>20.5</ele>
        <time>2023-09-27T09:16:50Z</time>
      </trkpt>
      <trkpt lat="48.93202" lon="2.12319">
        <ele>20.5</ele>
        <time>2023-09-27T09:17:10Z</time>
      </trkpt>
      <trkpt lat="48.93204" lon="2.12317">
        <ele>20.69</ele>
        <time>2023-09-27T09:17:25Z</time>
      </trkpt>
    </trkseg>
  </trk>
</gpx>